<?xml version="1.0" encoding="UTF-8" standalone="no" ?>
<gpx xmlns="http://www.topografix.com/GPX/1/1" xmlns:xsi="http://www.w3.org/2001/XMLSchema-instance" xsi:schemaLocation="http://www.topografix.com/GPX/1/1 http://www.topografix.com/GPX/1/1/gpx.xsd" version="1.1" creator="VisuGPX - https://www.visugpx.com">
  <metadata>
    <name>durance cyclo</name>
    <desc><![CDATA[Quelques circuits le long de la durance]]></desc>
  </metadata>
  <trk>
    <name><![CDATA[N°62  Monetier/Sisteron]]></name>
    <trkseg>
      <trkpt lat="44.38523" lon="5.9422">
        <ele>440.9018555</ele>
        <time>2016-02-05T10:05:02Z</time>
      </trkpt>
      <trkpt lat="44.38518" lon="5.9423">
        <ele>446.6696777</ele>
        <time>2016-02-05T10:06:03Z</time>
      </trkpt>
      <trkpt lat="44.38518" lon="5.9423">
        <ele>450.5150146</ele>
        <time>2016-02-05T10:06:04Z</time>
      </trkpt>
      <trkpt lat="44.38518" lon="5.9423">
        <ele>454.8408203</ele>
        <time>2016-02-05T10:06:05Z</time>
      </trkpt>
      <trkpt lat="44.38518" lon="5.9423">
        <ele>458.6861572</ele>
        <time>2016-02-05T10:06:06Z</time>
      </trkpt>
      <trkpt lat="44.38518" lon="5.9423">
        <ele>462.5313721</ele>
        <time>2016-02-05T10:06:07Z</time>
      </trkpt>
      <trkpt lat="44.38518" lon="5.9423">
        <ele>466.376709</ele>
        <time>2016-02-05T10:06:08Z</time>
      </trkpt>
      <trkpt lat="44.38517" lon="5.9423">
        <ele>469.741333</ele>
        <time>2016-02-05T10:06:09Z</time>
      </trkpt>
      <trkpt lat="44.38517" lon="5.9423">
        <ele>473.1060791</ele>
        <time>2016-02-05T10:06:10Z</time>
      </trkpt>
      <trkpt lat="44.38517" lon="5.9423">
        <ele>475.9898682</ele>
        <time>2016-02-05T10:06:11Z</time>
      </trkpt>
      <trkpt lat="44.38517" lon="5.9423">
        <ele>479.3544922</ele>
        <time>2016-02-05T10:06:12Z</time>
      </trkpt>
      <trkpt lat="44.38517" lon="5.9423">
        <ele>482.2385254</ele>
        <time>2016-02-05T10:06:13Z</time>
      </trkpt>
      <trkpt lat="44.38517" lon="5.9423">
        <ele>488.0064697</ele>
        <time>2016-02-05T10:06:15Z</time>
      </trkpt>
      <trkpt lat="44.38517" lon="5.9423">
        <ele>491.3709717</ele>
        <time>2016-02-05T10:06:16Z</time>
      </trkpt>
      <trkpt lat="44.38517" lon="5.9423">
        <ele>495.6968994</ele>
        <time>2016-02-05T10:06:18Z</time>
      </trkpt>
      <trkpt lat="44.38517" lon="5.9423">
        <ele>500.9841309</ele>
        <time>2016-02-05T10:06:20Z</time>
      </trkpt>
      <trkpt lat="44.38517" lon="5.9423">
        <ele>505.3101807</ele>
        <time>2016-02-05T10:06:22Z</time>
      </trkpt>
      <trkpt lat="44.38517" lon="5.9423">
        <ele>509.6361084</ele>
        <time>2016-02-05T10:06:24Z</time>
      </trkpt>
      <trkpt lat="44.38517" lon="5.9423">
        <ele>513.9620361</ele>
        <time>2016-02-05T10:06:26Z</time>
      </trkpt>
      <trkpt lat="44.38517" lon="5.9423">
        <ele>517.3266602</ele>
        <time>2016-02-05T10:06:28Z</time>
      </trkpt>
      <trkpt lat="44.38517" lon="5.9423">
        <ele>520.2105713</ele>
        <time>2016-02-05T10:06:30Z</time>
      </trkpt>
      <trkpt lat="44.38517" lon="5.9423">
        <ele>524.0557861</ele>
        <time>2016-02-05T10:06:32Z</time>
      </trkpt>
      <trkpt lat="44.38517" lon="5.9423">
        <ele>527.4204102</ele>
        <time>2016-02-05T10:06:34Z</time>
      </trkpt>
      <trkpt lat="44.38517" lon="5.9423">
        <ele>531.7463379</ele>
        <time>2016-02-05T10:06:37Z</time>
      </trkpt>
      <trkpt lat="44.38517" lon="5.9423">
        <ele>535.5915527</ele>
        <time>2016-02-05T10:06:40Z</time>
      </trkpt>
      <trkpt lat="44.38517" lon="5.9423">
        <ele>539.4368896</ele>
        <time>2016-02-05T10:06:43Z</time>
      </trkpt>
      <trkpt lat="44.38517" lon="5.9423">
        <ele>542.3209229</ele>
        <time>2016-02-05T10:06:46Z</time>
      </trkpt>
      <trkpt lat="44.38517" lon="5.9423">
        <ele>546.1662598</ele>
        <time>2016-02-05T10:06:50Z</time>
      </trkpt>
      <trkpt lat="44.38517" lon="5.9423">
        <ele>550.0114746</ele>
        <time>2016-02-05T10:06:55Z</time>
      </trkpt>
      <trkpt lat="44.38517" lon="5.9423">
        <ele>552.8952637</ele>
        <time>2016-02-05T10:06:59Z</time>
      </trkpt>
      <trkpt lat="44.38517" lon="5.9423">
        <ele>555.7792969</ele>
        <time>2016-02-05T10:07:04Z</time>
      </trkpt>
      <trkpt lat="44.38518" lon="5.9423">
        <ele>559.144043</ele>
        <time>2016-02-05T10:07:11Z</time>
      </trkpt>
      <trkpt lat="44.38518" lon="5.9423">
        <ele>562.5085449</ele>
        <time>2016-02-05T10:07:19Z</time>
      </trkpt>
      <trkpt lat="44.38521" lon="5.94228">
        <ele>565.873291</ele>
        <time>2016-02-05T10:07:29Z</time>
      </trkpt>
      <trkpt lat="44.38525" lon="5.94226">
        <ele>568.7570801</ele>
        <time>2016-02-05T10:08:24Z</time>
      </trkpt>
      <trkpt lat="44.38524" lon="5.94226">
        <ele>568.2763672</ele>
        <time>2016-02-05T10:08:31Z</time>
      </trkpt>
      <trkpt lat="44.38525" lon="5.94232">
        <ele>568.2763672</ele>
        <time>2016-02-05T10:08:35Z</time>
      </trkpt>
      <trkpt lat="44.38516" lon="5.94242">
        <ele>568.7570801</ele>
        <time>2016-02-05T10:08:40Z</time>
      </trkpt>
      <trkpt lat="44.38503" lon="5.94249">
        <ele>568.2763672</ele>
        <time>2016-02-05T10:08:46Z</time>
      </trkpt>
      <trkpt lat="44.38495" lon="5.94237">
        <ele>568.7570801</ele>
        <time>2016-02-05T10:08:53Z</time>
      </trkpt>
      <trkpt lat="44.38496" lon="5.9418">
        <ele>568.7570801</ele>
        <time>2016-02-05T10:09:08Z</time>
      </trkpt>
      <trkpt lat="44.38504" lon="5.94129">
        <ele>568.2763672</ele>
        <time>2016-02-05T10:09:18Z</time>
      </trkpt>
      <trkpt lat="44.38505" lon="5.93996">
        <ele>566.8344727</ele>
        <time>2016-02-05T10:09:42Z</time>
      </trkpt>
      <trkpt lat="44.38504" lon="5.93965">
        <ele>566.8344727</ele>
        <time>2016-02-05T10:09:47Z</time>
      </trkpt>
      <trkpt lat="44.38516" lon="5.93943">
        <ele>566.8344727</ele>
        <time>2016-02-05T10:09:53Z</time>
      </trkpt>
      <trkpt lat="44.3856" lon="5.9393">
        <ele>570.1989746</ele>
        <time>2016-02-05T10:10:15Z</time>
      </trkpt>
      <trkpt lat="44.38589" lon="5.93926">
        <ele>571.6408691</ele>
        <time>2016-02-05T10:10:30Z</time>
      </trkpt>
      <trkpt lat="44.38622" lon="5.93922">
        <ele>575.0058594</ele>
        <time>2016-02-05T10:10:47Z</time>
      </trkpt>
      <trkpt lat="44.38659" lon="5.93915">
        <ele>577.8896484</ele>
        <time>2016-02-05T10:11:08Z</time>
      </trkpt>
      <trkpt lat="44.38694" lon="5.93897">
        <ele>580.7736816</ele>
        <time>2016-02-05T10:11:31Z</time>
      </trkpt>
      <trkpt lat="44.38699" lon="5.93889">
        <ele>580.7736816</ele>
        <time>2016-02-05T10:11:35Z</time>
      </trkpt>
      <trkpt lat="44.38698" lon="5.93872">
        <ele>580.7736816</ele>
        <time>2016-02-05T10:11:40Z</time>
      </trkpt>
      <trkpt lat="44.38697" lon="5.9381">
        <ele>583.6574707</ele>
        <time>2016-02-05T10:12:01Z</time>
      </trkpt>
      <trkpt lat="44.38702" lon="5.93738">
        <ele>586.5415039</ele>
        <time>2016-02-05T10:12:26Z</time>
      </trkpt>
      <trkpt lat="44.38707" lon="5.93651">
        <ele>587.9833984</ele>
        <time>2016-02-05T10:12:52Z</time>
      </trkpt>
      <trkpt lat="44.38699" lon="5.93584">
        <ele>589.4255371</ele>
        <time>2016-02-05T10:13:12Z</time>
      </trkpt>
      <trkpt lat="44.38643" lon="5.93546">
        <ele>587.0219727</ele>
        <time>2016-02-05T10:13:25Z</time>
      </trkpt>
      <trkpt lat="44.38603" lon="5.93518">
        <ele>585.0996094</ele>
        <time>2016-02-05T10:13:31Z</time>
      </trkpt>
      <trkpt lat="44.38482" lon="5.93428">
        <ele>582.2155762</ele>
        <time>2016-02-05T10:13:47Z</time>
      </trkpt>
      <trkpt lat="44.38341" lon="5.9333">
        <ele>582.2155762</ele>
        <time>2016-02-05T10:14:08Z</time>
      </trkpt>
      <trkpt lat="44.38241" lon="5.93263">
        <ele>583.1767578</ele>
        <time>2016-02-05T10:14:27Z</time>
      </trkpt>
      <trkpt lat="44.38114" lon="5.93174">
        <ele>583.1767578</ele>
        <time>2016-02-05T10:14:52Z</time>
      </trkpt>
      <trkpt lat="44.37946" lon="5.93052">
        <ele>580.7736816</ele>
        <time>2016-02-05T10:15:20Z</time>
      </trkpt>
      <trkpt lat="44.37832" lon="5.92973">
        <ele>580.7736816</ele>
        <time>2016-02-05T10:15:39Z</time>
      </trkpt>
      <trkpt lat="44.37693" lon="5.92877">
        <ele>581.2543945</ele>
        <time>2016-02-05T10:16:06Z</time>
      </trkpt>
      <trkpt lat="44.37569" lon="5.92794">
        <ele>582.2155762</ele>
        <time>2016-02-05T10:16:32Z</time>
      </trkpt>
      <trkpt lat="44.37426" lon="5.92696">
        <ele>583.1767578</ele>
        <time>2016-02-05T10:17:02Z</time>
      </trkpt>
      <trkpt lat="44.37317" lon="5.92613">
        <ele>582.6962891</ele>
        <time>2016-02-05T10:17:24Z</time>
      </trkpt>
      <trkpt lat="44.37212" lon="5.92517">
        <ele>579.8122559</ele>
        <time>2016-02-05T10:17:40Z</time>
      </trkpt>
      <trkpt lat="44.37096" lon="5.92414">
        <ele>579.331543</ele>
        <time>2016-02-05T10:17:59Z</time>
      </trkpt>
      <trkpt lat="44.3701" lon="5.92343">
        <ele>580.7736816</ele>
        <time>2016-02-05T10:18:18Z</time>
      </trkpt>
      <trkpt lat="44.36984" lon="5.92322">
        <ele>581.7348633</ele>
        <time>2016-02-05T10:18:25Z</time>
      </trkpt>
      <trkpt lat="44.36908" lon="5.92262">
        <ele>583.6574707</ele>
        <time>2016-02-05T10:18:49Z</time>
      </trkpt>
      <trkpt lat="44.36863" lon="5.92236">
        <ele>587.0219727</ele>
        <time>2016-02-05T10:19:08Z</time>
      </trkpt>
      <trkpt lat="44.36822" lon="5.9221">
        <ele>588.9450684</ele>
        <time>2016-02-05T10:19:27Z</time>
      </trkpt>
      <trkpt lat="44.36779" lon="5.92189">
        <ele>585.5800781</ele>
        <time>2016-02-05T10:19:35Z</time>
      </trkpt>
      <trkpt lat="44.36764" lon="5.92182">
        <ele>584.6188965</ele>
        <time>2016-02-05T10:19:37Z</time>
      </trkpt>
      <trkpt lat="44.36642" lon="5.92148">
        <ele>583.1767578</ele>
        <time>2016-02-05T10:19:53Z</time>
      </trkpt>
      <trkpt lat="44.36541" lon="5.92092">
        <ele>584.1381836</ele>
        <time>2016-02-05T10:20:10Z</time>
      </trkpt>
      <trkpt lat="44.3642" lon="5.92007">
        <ele>583.6574707</ele>
        <time>2016-02-05T10:20:33Z</time>
      </trkpt>
      <trkpt lat="44.36311" lon="5.91932">
        <ele>585.0996094</ele>
        <time>2016-02-05T10:20:56Z</time>
      </trkpt>
      <trkpt lat="44.36219" lon="5.9187">
        <ele>585.0996094</ele>
        <time>2016-02-05T10:21:16Z</time>
      </trkpt>
      <trkpt lat="44.36132" lon="5.91812">
        <ele>585.5800781</ele>
        <time>2016-02-05T10:21:34Z</time>
      </trkpt>
      <trkpt lat="44.35979" lon="5.91704">
        <ele>585.0996094</ele>
        <time>2016-02-05T10:22:05Z</time>
      </trkpt>
      <trkpt lat="44.3589" lon="5.91642">
        <ele>584.6188965</ele>
        <time>2016-02-05T10:22:23Z</time>
      </trkpt>
      <trkpt lat="44.35769" lon="5.91558">
        <ele>584.6188965</ele>
        <time>2016-02-05T10:22:48Z</time>
      </trkpt>
      <trkpt lat="44.35637" lon="5.91465">
        <ele>585.0996094</ele>
        <time>2016-02-05T10:23:15Z</time>
      </trkpt>
      <trkpt lat="44.35614" lon="5.91452">
        <ele>586.060791</ele>
        <time>2016-02-05T10:23:20Z</time>
      </trkpt>
      <trkpt lat="44.3554" lon="5.91403">
        <ele>587.5026855</ele>
        <time>2016-02-05T10:23:40Z</time>
      </trkpt>
      <trkpt lat="44.35505" lon="5.91383">
        <ele>588.4643555</ele>
        <time>2016-02-05T10:23:50Z</time>
      </trkpt>
      <trkpt lat="44.35467" lon="5.91358">
        <ele>587.0219727</ele>
        <time>2016-02-05T10:23:59Z</time>
      </trkpt>
      <trkpt lat="44.35381" lon="5.91296">
        <ele>586.060791</ele>
        <time>2016-02-05T10:24:16Z</time>
      </trkpt>
      <trkpt lat="44.35295" lon="5.91228">
        <ele>585.0996094</ele>
        <time>2016-02-05T10:24:33Z</time>
      </trkpt>
      <trkpt lat="44.3521" lon="5.91153">
        <ele>584.1381836</ele>
        <time>2016-02-05T10:24:50Z</time>
      </trkpt>
      <trkpt lat="44.35096" lon="5.91048">
        <ele>581.2543945</ele>
        <time>2016-02-05T10:25:08Z</time>
      </trkpt>
      <trkpt lat="44.35003" lon="5.9096">
        <ele>577.8896484</ele>
        <time>2016-02-05T10:25:21Z</time>
      </trkpt>
      <trkpt lat="44.34888" lon="5.90864">
        <ele>576.4477539</ele>
        <time>2016-02-05T10:25:37Z</time>
      </trkpt>
      <trkpt lat="44.34805" lon="5.90799">
        <ele>577.8896484</ele>
        <time>2016-02-05T10:25:54Z</time>
      </trkpt>
      <trkpt lat="44.34749" lon="5.90753">
        <ele>578.8510742</ele>
        <time>2016-02-05T10:26:11Z</time>
      </trkpt>
      <trkpt lat="44.34691" lon="5.90714">
        <ele>580.7736816</ele>
        <time>2016-02-05T10:26:33Z</time>
      </trkpt>
      <trkpt lat="44.34659" lon="5.90692">
        <ele>583.6574707</ele>
        <time>2016-02-05T10:26:49Z</time>
      </trkpt>
      <trkpt lat="44.34619" lon="5.90664">
        <ele>586.060791</ele>
        <time>2016-02-05T10:27:10Z</time>
      </trkpt>
      <trkpt lat="44.34558" lon="5.90613">
        <ele>586.060791</ele>
        <time>2016-02-05T10:27:33Z</time>
      </trkpt>
      <trkpt lat="44.34498" lon="5.90564">
        <ele>586.5415039</ele>
        <time>2016-02-05T10:27:52Z</time>
      </trkpt>
      <trkpt lat="44.34419" lon="5.9049">
        <ele>588.4643555</ele>
        <time>2016-02-05T10:28:20Z</time>
      </trkpt>
      <trkpt lat="44.34386" lon="5.90449">
        <ele>589.90625</ele>
        <time>2016-02-05T10:28:35Z</time>
      </trkpt>
      <trkpt lat="44.34345" lon="5.90427">
        <ele>587.0219727</ele>
        <time>2016-02-05T10:28:42Z</time>
      </trkpt>
      <trkpt lat="44.34268" lon="5.90355">
        <ele>586.5415039</ele>
        <time>2016-02-05T10:28:55Z</time>
      </trkpt>
      <trkpt lat="44.34247" lon="5.90328">
        <ele>588.9450684</ele>
        <time>2016-02-05T10:29:02Z</time>
      </trkpt>
      <trkpt lat="44.34215" lon="5.90288">
        <ele>591.8288574</ele>
        <time>2016-02-05T10:29:21Z</time>
      </trkpt>
      <trkpt lat="44.34183" lon="5.90247">
        <ele>594.2321777</ele>
        <time>2016-02-05T10:29:43Z</time>
      </trkpt>
      <trkpt lat="44.34156" lon="5.90212">
        <ele>597.5966797</ele>
        <time>2016-02-05T10:30:01Z</time>
      </trkpt>
      <trkpt lat="44.34103" lon="5.90157">
        <ele>597.5966797</ele>
        <time>2016-02-05T10:30:24Z</time>
      </trkpt>
      <trkpt lat="44.34042" lon="5.90103">
        <ele>595.1933594</ele>
        <time>2016-02-05T10:30:36Z</time>
      </trkpt>
      <trkpt lat="44.33942" lon="5.9">
        <ele>591.8288574</ele>
        <time>2016-02-05T10:30:50Z</time>
      </trkpt>
      <trkpt lat="44.33937" lon="5.89994">
        <ele>592.3095703</ele>
        <time>2016-02-05T10:30:51Z</time>
      </trkpt>
      <trkpt lat="44.33929" lon="5.8998">
        <ele>592.3095703</ele>
        <time>2016-02-05T10:30:59Z</time>
      </trkpt>
      <trkpt lat="44.33927" lon="5.8998">
        <ele>592.3095703</ele>
        <time>2016-02-05T10:32:49Z</time>
      </trkpt>
      <trkpt lat="44.33916" lon="5.89974">
        <ele>591.8288574</ele>
        <time>2016-02-05T10:32:53Z</time>
      </trkpt>
      <trkpt lat="44.3391" lon="5.89967">
        <ele>591.8288574</ele>
        <time>2016-02-05T10:32:55Z</time>
      </trkpt>
      <trkpt lat="44.33895" lon="5.89955">
        <ele>591.3481445</ele>
        <time>2016-02-05T10:32:59Z</time>
      </trkpt>
      <trkpt lat="44.3388" lon="5.89938">
        <ele>591.3481445</ele>
        <time>2016-02-05T10:33:03Z</time>
      </trkpt>
      <trkpt lat="44.33801" lon="5.89875">
        <ele>588.9450684</ele>
        <time>2016-02-05T10:33:17Z</time>
      </trkpt>
      <trkpt lat="44.3374" lon="5.89826">
        <ele>586.060791</ele>
        <time>2016-02-05T10:33:25Z</time>
      </trkpt>
      <trkpt lat="44.33662" lon="5.89781">
        <ele>586.060791</ele>
        <time>2016-02-05T10:33:37Z</time>
      </trkpt>
      <trkpt lat="44.33554" lon="5.89727">
        <ele>586.5415039</ele>
        <time>2016-02-05T10:33:56Z</time>
      </trkpt>
      <trkpt lat="44.33442" lon="5.89672">
        <ele>586.5415039</ele>
        <time>2016-02-05T10:34:16Z</time>
      </trkpt>
      <trkpt lat="44.3332" lon="5.89615">
        <ele>585.5800781</ele>
        <time>2016-02-05T10:34:38Z</time>
      </trkpt>
      <trkpt lat="44.33222" lon="5.89575">
        <ele>586.5415039</ele>
        <time>2016-02-05T10:34:56Z</time>
      </trkpt>
      <trkpt lat="44.33151" lon="5.8955">
        <ele>586.5415039</ele>
        <time>2016-02-05T10:35:09Z</time>
      </trkpt>
      <trkpt lat="44.3314" lon="5.89548">
        <ele>586.5415039</ele>
        <time>2016-02-05T10:35:11Z</time>
      </trkpt>
      <trkpt lat="44.33028" lon="5.89516">
        <ele>586.5415039</ele>
        <time>2016-02-05T10:35:31Z</time>
      </trkpt>
      <trkpt lat="44.32913" lon="5.8946">
        <ele>586.5415039</ele>
        <time>2016-02-05T10:35:52Z</time>
      </trkpt>
      <trkpt lat="44.32833" lon="5.894">
        <ele>586.060791</ele>
        <time>2016-02-05T10:36:08Z</time>
      </trkpt>
      <trkpt lat="44.32761" lon="5.89348">
        <ele>586.5415039</ele>
        <time>2016-02-05T10:36:22Z</time>
      </trkpt>
      <trkpt lat="44.32662" lon="5.89274">
        <ele>586.060791</ele>
        <time>2016-02-05T10:36:42Z</time>
      </trkpt>
      <trkpt lat="44.32594" lon="5.89228">
        <ele>586.5415039</ele>
        <time>2016-02-05T10:36:56Z</time>
      </trkpt>
      <trkpt lat="44.32472" lon="5.89178">
        <ele>585.0996094</ele>
        <time>2016-02-05T10:37:15Z</time>
      </trkpt>
      <trkpt lat="44.32354" lon="5.89142">
        <ele>585.5800781</ele>
        <time>2016-02-05T10:37:34Z</time>
      </trkpt>
      <trkpt lat="44.32212" lon="5.89098">
        <ele>585.5800781</ele>
        <time>2016-02-05T10:37:58Z</time>
      </trkpt>
      <trkpt lat="44.32094" lon="5.89066">
        <ele>586.060791</ele>
        <time>2016-02-05T10:38:18Z</time>
      </trkpt>
      <trkpt lat="44.32025" lon="5.89048">
        <ele>588.9450684</ele>
        <time>2016-02-05T10:38:34Z</time>
      </trkpt>
      <trkpt lat="44.32006" lon="5.89036">
        <ele>589.4255371</ele>
        <time>2016-02-05T10:38:45Z</time>
      </trkpt>
      <trkpt lat="44.32006" lon="5.8903">
        <ele>590.3869629</ele>
        <time>2016-02-05T10:39:03Z</time>
      </trkpt>
      <trkpt lat="44.32007" lon="5.89029">
        <ele>590.3869629</ele>
        <time>2016-02-05T10:39:34Z</time>
      </trkpt>
      <trkpt lat="44.32004" lon="5.89032">
        <ele>590.3869629</ele>
        <time>2016-02-05T10:39:54Z</time>
      </trkpt>
      <trkpt lat="44.32004" lon="5.89032">
        <ele>588.4643555</ele>
        <time>2016-02-05T10:40:15Z</time>
      </trkpt>
      <trkpt lat="44.32004" lon="5.89032">
        <ele>589.90625</ele>
        <time>2016-02-05T10:40:17Z</time>
      </trkpt>
      <trkpt lat="44.32004" lon="5.89032">
        <ele>591.8288574</ele>
        <time>2016-02-05T10:40:22Z</time>
      </trkpt>
      <trkpt lat="44.32004" lon="5.89032">
        <ele>590.3869629</ele>
        <time>2016-02-05T10:40:25Z</time>
      </trkpt>
      <trkpt lat="44.32002" lon="5.8903">
        <ele>591.8288574</ele>
        <time>2016-02-05T10:40:49Z</time>
      </trkpt>
      <trkpt lat="44.31992" lon="5.89024">
        <ele>591.3481445</ele>
        <time>2016-02-05T10:41:12Z</time>
      </trkpt>
      <trkpt lat="44.31945" lon="5.88992">
        <ele>592.3095703</ele>
        <time>2016-02-05T10:41:29Z</time>
      </trkpt>
      <trkpt lat="44.31879" lon="5.8899">
        <ele>594.7126465</ele>
        <time>2016-02-05T10:41:51Z</time>
      </trkpt>
      <trkpt lat="44.31812" lon="5.89033">
        <ele>597.1159668</ele>
        <time>2016-02-05T10:42:15Z</time>
      </trkpt>
      <trkpt lat="44.31724" lon="5.89085">
        <ele>598.5578613</ele>
        <time>2016-02-05T10:42:46Z</time>
      </trkpt>
      <trkpt lat="44.31677" lon="5.89089">
        <ele>600</ele>
        <time>2016-02-05T10:43:01Z</time>
      </trkpt>
      <trkpt lat="44.31582" lon="5.89088">
        <ele>602.8837891</ele>
        <time>2016-02-05T10:43:33Z</time>
      </trkpt>
      <trkpt lat="44.31515" lon="5.89089">
        <ele>605.2873535</ele>
        <time>2016-02-05T10:43:59Z</time>
      </trkpt>
      <trkpt lat="44.31452" lon="5.89099">
        <ele>605.2873535</ele>
        <time>2016-02-05T10:44:17Z</time>
      </trkpt>
      <trkpt lat="44.31365" lon="5.89112">
        <ele>605.2873535</ele>
        <time>2016-02-05T10:44:40Z</time>
      </trkpt>
      <trkpt lat="44.31273" lon="5.8913">
        <ele>606.729248</ele>
        <time>2016-02-05T10:45:06Z</time>
      </trkpt>
      <trkpt lat="44.31262" lon="5.89134">
        <ele>606.2485352</ele>
        <time>2016-02-05T10:45:09Z</time>
      </trkpt>
      <trkpt lat="44.31182" lon="5.89142">
        <ele>605.2873535</ele>
        <time>2016-02-05T10:45:25Z</time>
      </trkpt>
      <trkpt lat="44.31039" lon="5.89161">
        <ele>603.8452148</ele>
        <time>2016-02-05T10:45:53Z</time>
      </trkpt>
      <trkpt lat="44.30921" lon="5.89191">
        <ele>600.9611816</ele>
        <time>2016-02-05T10:46:13Z</time>
      </trkpt>
      <trkpt lat="44.3082" lon="5.89222">
        <ele>597.5966797</ele>
        <time>2016-02-05T10:46:25Z</time>
      </trkpt>
      <trkpt lat="44.30792" lon="5.89231">
        <ele>596.1547852</ele>
        <time>2016-02-05T10:46:28Z</time>
      </trkpt>
      <trkpt lat="44.30673" lon="5.89267">
        <ele>592.7902832</ele>
        <time>2016-02-05T10:46:41Z</time>
      </trkpt>
      <trkpt lat="44.30561" lon="5.89301">
        <ele>593.270752</ele>
        <time>2016-02-05T10:46:56Z</time>
      </trkpt>
      <trkpt lat="44.30443" lon="5.89336">
        <ele>593.7514648</ele>
        <time>2016-02-05T10:47:16Z</time>
      </trkpt>
      <trkpt lat="44.30332" lon="5.89369">
        <ele>591.8288574</ele>
        <time>2016-02-05T10:47:34Z</time>
      </trkpt>
      <trkpt lat="44.3018" lon="5.89415">
        <ele>589.90625</ele>
        <time>2016-02-05T10:47:57Z</time>
      </trkpt>
      <trkpt lat="44.30058" lon="5.8945">
        <ele>589.90625</ele>
        <time>2016-02-05T10:48:21Z</time>
      </trkpt>
      <trkpt lat="44.29956" lon="5.8948">
        <ele>590.8674316</ele>
        <time>2016-02-05T10:48:43Z</time>
      </trkpt>
      <trkpt lat="44.29861" lon="5.8951">
        <ele>591.8288574</ele>
        <time>2016-02-05T10:49:07Z</time>
      </trkpt>
      <trkpt lat="44.29758" lon="5.89517">
        <ele>590.8674316</ele>
        <time>2016-02-05T10:49:30Z</time>
      </trkpt>
      <trkpt lat="44.29666" lon="5.89514">
        <ele>589.90625</ele>
        <time>2016-02-05T10:49:44Z</time>
      </trkpt>
      <trkpt lat="44.29608" lon="5.89513">
        <ele>591.8288574</ele>
        <time>2016-02-05T10:49:59Z</time>
      </trkpt>
      <trkpt lat="44.29564" lon="5.89529">
        <ele>594.2321777</ele>
        <time>2016-02-05T10:50:17Z</time>
      </trkpt>
      <trkpt lat="44.29521" lon="5.89551">
        <ele>597.5966797</ele>
        <time>2016-02-05T10:50:37Z</time>
      </trkpt>
      <trkpt lat="44.2947" lon="5.89569">
        <ele>600.4807129</ele>
        <time>2016-02-05T10:51:02Z</time>
      </trkpt>
      <trkpt lat="44.2941" lon="5.89573">
        <ele>600</ele>
        <time>2016-02-05T10:51:19Z</time>
      </trkpt>
      <trkpt lat="44.29325" lon="5.89585">
        <ele>599.5192871</ele>
        <time>2016-02-05T10:51:40Z</time>
      </trkpt>
      <trkpt lat="44.29256" lon="5.89634">
        <ele>600</ele>
        <time>2016-02-05T10:52:00Z</time>
      </trkpt>
      <trkpt lat="44.29212" lon="5.89703">
        <ele>598.0773926</ele>
        <time>2016-02-05T10:52:14Z</time>
      </trkpt>
      <trkpt lat="44.29198" lon="5.89727">
        <ele>597.1159668</ele>
        <time>2016-02-05T10:52:19Z</time>
      </trkpt>
      <trkpt lat="44.29187" lon="5.89742">
        <ele>596.635498</ele>
        <time>2016-02-05T10:52:22Z</time>
      </trkpt>
      <trkpt lat="44.29148" lon="5.8976">
        <ele>594.2321777</ele>
        <time>2016-02-05T10:52:28Z</time>
      </trkpt>
      <trkpt lat="44.29084" lon="5.89755">
        <ele>590.3869629</ele>
        <time>2016-02-05T10:52:35Z</time>
      </trkpt>
      <trkpt lat="44.29044" lon="5.89751">
        <ele>587.9833984</ele>
        <time>2016-02-05T10:52:39Z</time>
      </trkpt>
      <trkpt lat="44.28917" lon="5.89755">
        <ele>585.5800781</ele>
        <time>2016-02-05T10:52:53Z</time>
      </trkpt>
      <trkpt lat="44.28823" lon="5.89771">
        <ele>586.060791</ele>
        <time>2016-02-05T10:53:09Z</time>
      </trkpt>
      <trkpt lat="44.28726" lon="5.89787">
        <ele>585.5800781</ele>
        <time>2016-02-05T10:53:30Z</time>
      </trkpt>
      <trkpt lat="44.28711" lon="5.89786">
        <ele>585.5800781</ele>
        <time>2016-02-05T10:53:40Z</time>
      </trkpt>
      <trkpt lat="44.28711" lon="5.89786">
        <ele>583.6574707</ele>
        <time>2016-02-05T10:53:46Z</time>
      </trkpt>
      <trkpt lat="44.28711" lon="5.89787">
        <ele>585.0996094</ele>
        <time>2016-02-05T10:53:48Z</time>
      </trkpt>
      <trkpt lat="44.28711" lon="5.89787">
        <ele>586.060791</ele>
        <time>2016-02-05T10:54:18Z</time>
      </trkpt>
      <trkpt lat="44.28711" lon="5.89787">
        <ele>586.5415039</ele>
        <time>2016-02-05T10:54:36Z</time>
      </trkpt>
      <trkpt lat="44.28702" lon="5.89789">
        <ele>584.6188965</ele>
        <time>2016-02-05T10:54:53Z</time>
      </trkpt>
      <trkpt lat="44.28642" lon="5.898">
        <ele>584.6188965</ele>
        <time>2016-02-05T10:55:05Z</time>
      </trkpt>
      <trkpt lat="44.28551" lon="5.89816">
        <ele>581.2543945</ele>
        <time>2016-02-05T10:55:17Z</time>
      </trkpt>
      <trkpt lat="44.28472" lon="5.89829">
        <ele>578.3703613</ele>
        <time>2016-02-05T10:55:25Z</time>
      </trkpt>
      <trkpt lat="44.28439" lon="5.89834">
        <ele>575.967041</ele>
        <time>2016-02-05T10:55:28Z</time>
      </trkpt>
      <trkpt lat="44.28371" lon="5.89827">
        <ele>572.1218262</ele>
        <time>2016-02-05T10:55:34Z</time>
      </trkpt>
      <trkpt lat="44.28361" lon="5.89825">
        <ele>572.1218262</ele>
        <time>2016-02-05T10:55:35Z</time>
      </trkpt>
      <trkpt lat="44.28302" lon="5.89815">
        <ele>569.237793</ele>
        <time>2016-02-05T10:55:41Z</time>
      </trkpt>
      <trkpt lat="44.28275" lon="5.89804">
        <ele>567.7956543</ele>
        <time>2016-02-05T10:55:44Z</time>
      </trkpt>
      <trkpt lat="44.28266" lon="5.89802">
        <ele>568.2763672</ele>
        <time>2016-02-05T10:55:45Z</time>
      </trkpt>
      <trkpt lat="44.28243" lon="5.89796">
        <ele>568.2763672</ele>
        <time>2016-02-05T10:55:48Z</time>
      </trkpt>
      <trkpt lat="44.28221" lon="5.89783">
        <ele>566.8344727</ele>
        <time>2016-02-05T10:55:54Z</time>
      </trkpt>
      <trkpt lat="44.28149" lon="5.89785">
        <ele>563.4699707</ele>
        <time>2016-02-05T10:56:06Z</time>
      </trkpt>
      <trkpt lat="44.28122" lon="5.89784">
        <ele>562.5085449</ele>
        <time>2016-02-05T10:56:09Z</time>
      </trkpt>
      <trkpt lat="44.28097" lon="5.89794">
        <ele>560.1052246</ele>
        <time>2016-02-05T10:56:12Z</time>
      </trkpt>
      <trkpt lat="44.28081" lon="5.8985">
        <ele>558.6633301</ele>
        <time>2016-02-05T10:56:18Z</time>
      </trkpt>
      <trkpt lat="44.28083" lon="5.89923">
        <ele>558.1828613</ele>
        <time>2016-02-05T10:56:25Z</time>
      </trkpt>
      <trkpt lat="44.28083" lon="5.89961">
        <ele>557.7021484</ele>
        <time>2016-02-05T10:56:30Z</time>
      </trkpt>
      <trkpt lat="44.28057" lon="5.90048">
        <ele>557.2214355</ele>
        <time>2016-02-05T10:56:41Z</time>
      </trkpt>
      <trkpt lat="44.28061" lon="5.90107">
        <ele>556.7407227</ele>
        <time>2016-02-05T10:56:52Z</time>
      </trkpt>
      <trkpt lat="44.28062" lon="5.90114">
        <ele>555.7792969</ele>
        <time>2016-02-05T10:57:03Z</time>
      </trkpt>
      <trkpt lat="44.28063" lon="5.90115">
        <ele>555.7792969</ele>
        <time>2016-02-05T10:57:33Z</time>
      </trkpt>
      <trkpt lat="44.28063" lon="5.90114">
        <ele>555.298584</ele>
        <time>2016-02-05T10:58:21Z</time>
      </trkpt>
      <trkpt lat="44.28063" lon="5.90113">
        <ele>555.7792969</ele>
        <time>2016-02-05T10:58:24Z</time>
      </trkpt>
      <trkpt lat="44.28064" lon="5.90105">
        <ele>555.298584</ele>
        <time>2016-02-05T10:58:28Z</time>
      </trkpt>
      <trkpt lat="44.28063" lon="5.9005">
        <ele>556.2600098</ele>
        <time>2016-02-05T10:58:40Z</time>
      </trkpt>
      <trkpt lat="44.28088" lon="5.89964">
        <ele>556.7407227</ele>
        <time>2016-02-05T10:58:58Z</time>
      </trkpt>
      <trkpt lat="44.28086" lon="5.89882">
        <ele>557.2214355</ele>
        <time>2016-02-05T10:59:15Z</time>
      </trkpt>
      <trkpt lat="44.28084" lon="5.89845">
        <ele>556.7407227</ele>
        <time>2016-02-05T10:59:23Z</time>
      </trkpt>
      <trkpt lat="44.28081" lon="5.89841">
        <ele>557.7021484</ele>
        <time>2016-02-05T10:59:25Z</time>
      </trkpt>
      <trkpt lat="44.28105" lon="5.89799">
        <ele>558.6633301</ele>
        <time>2016-02-05T10:59:37Z</time>
      </trkpt>
      <trkpt lat="44.28156" lon="5.89792">
        <ele>561.5473633</ele>
        <time>2016-02-05T11:00:01Z</time>
      </trkpt>
      <trkpt lat="44.28192" lon="5.89792">
        <ele>564.9118652</ele>
        <time>2016-02-05T11:00:21Z</time>
      </trkpt>
      <trkpt lat="44.2824" lon="5.89778">
        <ele>565.873291</ele>
        <time>2016-02-05T11:00:44Z</time>
      </trkpt>
      <trkpt lat="44.28274" lon="5.89745">
        <ele>566.3537598</ele>
        <time>2016-02-05T11:01:02Z</time>
      </trkpt>
      <trkpt lat="44.28288" lon="5.89694">
        <ele>567.7956543</ele>
        <time>2016-02-05T11:01:18Z</time>
      </trkpt>
      <trkpt lat="44.28281" lon="5.8963">
        <ele>570.1989746</ele>
        <time>2016-02-05T11:01:37Z</time>
      </trkpt>
      <trkpt lat="44.28297" lon="5.89571">
        <ele>573.083252</ele>
        <time>2016-02-05T11:01:59Z</time>
      </trkpt>
      <trkpt lat="44.28328" lon="5.89512">
        <ele>575.0058594</ele>
        <time>2016-02-05T11:02:22Z</time>
      </trkpt>
      <trkpt lat="44.28362" lon="5.89437">
        <ele>575.967041</ele>
        <time>2016-02-05T11:02:47Z</time>
      </trkpt>
      <trkpt lat="44.28395" lon="5.89347">
        <ele>574.5251465</ele>
        <time>2016-02-05T11:03:13Z</time>
      </trkpt>
      <trkpt lat="44.28411" lon="5.89272">
        <ele>575.0058594</ele>
        <time>2016-02-05T11:03:31Z</time>
      </trkpt>
      <trkpt lat="44.28414" lon="5.89265">
        <ele>574.5251465</ele>
        <time>2016-02-05T11:03:42Z</time>
      </trkpt>
      <trkpt lat="44.28411" lon="5.89253">
        <ele>574.0444336</ele>
        <time>2016-02-05T11:03:47Z</time>
      </trkpt>
      <trkpt lat="44.28364" lon="5.8921">
        <ele>576.4477539</ele>
        <time>2016-02-05T11:04:07Z</time>
      </trkpt>
      <trkpt lat="44.28314" lon="5.89173">
        <ele>575.967041</ele>
        <time>2016-02-05T11:04:24Z</time>
      </trkpt>
      <trkpt lat="44.28262" lon="5.89117">
        <ele>574.5251465</ele>
        <time>2016-02-05T11:04:36Z</time>
      </trkpt>
      <trkpt lat="44.28242" lon="5.89072">
        <ele>572.1218262</ele>
        <time>2016-02-05T11:04:44Z</time>
      </trkpt>
      <trkpt lat="44.28228" lon="5.89068">
        <ele>571.6408691</ele>
        <time>2016-02-05T11:04:48Z</time>
      </trkpt>
      <trkpt lat="44.28219" lon="5.89072">
        <ele>571.6408691</ele>
        <time>2016-02-05T11:04:50Z</time>
      </trkpt>
      <trkpt lat="44.28188" lon="5.89085">
        <ele>571.1604004</ele>
        <time>2016-02-05T11:04:57Z</time>
      </trkpt>
      <trkpt lat="44.28168" lon="5.89066">
        <ele>570.1989746</ele>
        <time>2016-02-05T11:05:03Z</time>
      </trkpt>
      <trkpt lat="44.28153" lon="5.89011">
        <ele>568.2763672</ele>
        <time>2016-02-05T11:05:10Z</time>
      </trkpt>
      <trkpt lat="44.28125" lon="5.88997">
        <ele>565.873291</ele>
        <time>2016-02-05T11:05:17Z</time>
      </trkpt>
      <trkpt lat="44.28078" lon="5.89027">
        <ele>565.3925781</ele>
        <time>2016-02-05T11:05:26Z</time>
      </trkpt>
      <trkpt lat="44.28053" lon="5.89031">
        <ele>564.9118652</ele>
        <time>2016-02-05T11:05:30Z</time>
      </trkpt>
      <trkpt lat="44.27931" lon="5.89024">
        <ele>562.9892578</ele>
        <time>2016-02-05T11:05:48Z</time>
      </trkpt>
      <trkpt lat="44.27924" lon="5.89026">
        <ele>562.9892578</ele>
        <time>2016-02-05T11:05:49Z</time>
      </trkpt>
      <trkpt lat="44.2791" lon="5.8902">
        <ele>561.5473633</ele>
        <time>2016-02-05T11:05:52Z</time>
      </trkpt>
      <trkpt lat="44.27903" lon="5.89">
        <ele>561.5473633</ele>
        <time>2016-02-05T11:05:55Z</time>
      </trkpt>
      <trkpt lat="44.279" lon="5.88979">
        <ele>561.5473633</ele>
        <time>2016-02-05T11:05:58Z</time>
      </trkpt>
      <trkpt lat="44.27879" lon="5.88958">
        <ele>560.5859375</ele>
        <time>2016-02-05T11:06:03Z</time>
      </trkpt>
      <trkpt lat="44.27822" lon="5.88866">
        <ele>559.6247559</ele>
        <time>2016-02-05T11:06:18Z</time>
      </trkpt>
      <trkpt lat="44.27792" lon="5.88836">
        <ele>559.144043</ele>
        <time>2016-02-05T11:06:24Z</time>
      </trkpt>
      <trkpt lat="44.27702" lon="5.88785">
        <ele>557.7021484</ele>
        <time>2016-02-05T11:06:40Z</time>
      </trkpt>
      <trkpt lat="44.27687" lon="5.88773">
        <ele>557.2214355</ele>
        <time>2016-02-05T11:06:43Z</time>
      </trkpt>
      <trkpt lat="44.27646" lon="5.88757">
        <ele>556.7407227</ele>
        <time>2016-02-05T11:06:50Z</time>
      </trkpt>
      <trkpt lat="44.27636" lon="5.8875">
        <ele>557.2214355</ele>
        <time>2016-02-05T11:06:52Z</time>
      </trkpt>
      <trkpt lat="44.27617" lon="5.88724">
        <ele>557.2214355</ele>
        <time>2016-02-05T11:06:58Z</time>
      </trkpt>
      <trkpt lat="44.2757" lon="5.88625">
        <ele>558.1828613</ele>
        <time>2016-02-05T11:07:14Z</time>
      </trkpt>
      <trkpt lat="44.27551" lon="5.88601">
        <ele>558.6633301</ele>
        <time>2016-02-05T11:07:21Z</time>
      </trkpt>
      <trkpt lat="44.27534" lon="5.88598">
        <ele>558.1828613</ele>
        <time>2016-02-05T11:07:25Z</time>
      </trkpt>
      <trkpt lat="44.27443" lon="5.88591">
        <ele>556.7407227</ele>
        <time>2016-02-05T11:07:41Z</time>
      </trkpt>
      <trkpt lat="44.27339" lon="5.88545">
        <ele>555.298584</ele>
        <time>2016-02-05T11:08:00Z</time>
      </trkpt>
      <trkpt lat="44.27257" lon="5.88519">
        <ele>553.8566895</ele>
        <time>2016-02-05T11:08:15Z</time>
      </trkpt>
      <trkpt lat="44.2716" lon="5.88506">
        <ele>553.8566895</ele>
        <time>2016-02-05T11:08:31Z</time>
      </trkpt>
      <trkpt lat="44.27086" lon="5.88478">
        <ele>553.8566895</ele>
        <time>2016-02-05T11:08:47Z</time>
      </trkpt>
      <trkpt lat="44.27027" lon="5.88455">
        <ele>555.7792969</ele>
        <time>2016-02-05T11:09:02Z</time>
      </trkpt>
      <trkpt lat="44.26932" lon="5.88438">
        <ele>554.8178711</ele>
        <time>2016-02-05T11:09:20Z</time>
      </trkpt>
      <trkpt lat="44.26879" lon="5.88395">
        <ele>555.7792969</ele>
        <time>2016-02-05T11:09:35Z</time>
      </trkpt>
      <trkpt lat="44.26846" lon="5.88372">
        <ele>557.7021484</ele>
        <time>2016-02-05T11:09:49Z</time>
      </trkpt>
      <trkpt lat="44.26804" lon="5.88341">
        <ele>558.1828613</ele>
        <time>2016-02-05T11:10:04Z</time>
      </trkpt>
      <trkpt lat="44.26772" lon="5.88319">
        <ele>558.1828613</ele>
        <time>2016-02-05T11:10:15Z</time>
      </trkpt>
      <trkpt lat="44.26707" lon="5.88285">
        <ele>558.1828613</ele>
        <time>2016-02-05T11:10:34Z</time>
      </trkpt>
      <trkpt lat="44.267" lon="5.88281">
        <ele>558.1828613</ele>
        <time>2016-02-05T11:10:36Z</time>
      </trkpt>
      <trkpt lat="44.26673" lon="5.88259">
        <ele>558.1828613</ele>
        <time>2016-02-05T11:10:43Z</time>
      </trkpt>
      <trkpt lat="44.26655" lon="5.88243">
        <ele>558.1828613</ele>
        <time>2016-02-05T11:10:48Z</time>
      </trkpt>
      <trkpt lat="44.26595" lon="5.88166">
        <ele>559.6247559</ele>
        <time>2016-02-05T11:11:10Z</time>
      </trkpt>
      <trkpt lat="44.26555" lon="5.88111">
        <ele>560.5859375</ele>
        <time>2016-02-05T11:11:29Z</time>
      </trkpt>
      <trkpt lat="44.26523" lon="5.88077">
        <ele>562.0280762</ele>
        <time>2016-02-05T11:11:44Z</time>
      </trkpt>
      <trkpt lat="44.26491" lon="5.88051">
        <ele>565.3925781</ele>
        <time>2016-02-05T11:12:00Z</time>
      </trkpt>
      <trkpt lat="44.26449" lon="5.88037">
        <ele>567.7956543</ele>
        <time>2016-02-05T11:12:19Z</time>
      </trkpt>
      <trkpt lat="44.26408" lon="5.88026">
        <ele>570.6796875</ele>
        <time>2016-02-05T11:12:39Z</time>
      </trkpt>
      <trkpt lat="44.2638" lon="5.8801">
        <ele>574.0444336</ele>
        <time>2016-02-05T11:12:57Z</time>
      </trkpt>
      <trkpt lat="44.26354" lon="5.87967">
        <ele>576.9284668</ele>
        <time>2016-02-05T11:13:19Z</time>
      </trkpt>
      <trkpt lat="44.26346" lon="5.87911">
        <ele>579.331543</ele>
        <time>2016-02-05T11:13:39Z</time>
      </trkpt>
      <trkpt lat="44.26347" lon="5.87853">
        <ele>580.2929688</ele>
        <time>2016-02-05T11:13:57Z</time>
      </trkpt>
      <trkpt lat="44.26325" lon="5.87808">
        <ele>581.7348633</ele>
        <time>2016-02-05T11:14:13Z</time>
      </trkpt>
      <trkpt lat="44.26288" lon="5.87775">
        <ele>582.2155762</ele>
        <time>2016-02-05T11:14:29Z</time>
      </trkpt>
      <trkpt lat="44.26239" lon="5.87736">
        <ele>583.6574707</ele>
        <time>2016-02-05T11:14:49Z</time>
      </trkpt>
      <trkpt lat="44.26183" lon="5.87703">
        <ele>584.6188965</ele>
        <time>2016-02-05T11:15:11Z</time>
      </trkpt>
      <trkpt lat="44.26136" lon="5.87678">
        <ele>585.0996094</ele>
        <time>2016-02-05T11:15:31Z</time>
      </trkpt>
      <trkpt lat="44.26134" lon="5.87677">
        <ele>585.0996094</ele>
        <time>2016-02-05T11:15:32Z</time>
      </trkpt>
      <trkpt lat="44.26117" lon="5.87677">
        <ele>585.5800781</ele>
        <time>2016-02-05T11:15:39Z</time>
      </trkpt>
      <trkpt lat="44.26113" lon="5.87674">
        <ele>584.6188965</ele>
        <time>2016-02-05T11:15:52Z</time>
      </trkpt>
      <trkpt lat="44.26112" lon="5.87673">
        <ele>585.5800781</ele>
        <time>2016-02-05T11:16:18Z</time>
      </trkpt>
      <trkpt lat="44.26105" lon="5.87672">
        <ele>585.5800781</ele>
        <time>2016-02-05T11:16:38Z</time>
      </trkpt>
      <trkpt lat="44.26076" lon="5.87689">
        <ele>585.0996094</ele>
        <time>2016-02-05T11:16:48Z</time>
      </trkpt>
      <trkpt lat="44.2604" lon="5.87688">
        <ele>583.6574707</ele>
        <time>2016-02-05T11:16:55Z</time>
      </trkpt>
      <trkpt lat="44.25939" lon="5.87712">
        <ele>581.2543945</ele>
        <time>2016-02-05T11:17:10Z</time>
      </trkpt>
      <trkpt lat="44.25907" lon="5.87731">
        <ele>579.8122559</ele>
        <time>2016-02-05T11:17:16Z</time>
      </trkpt>
      <trkpt lat="44.25858" lon="5.87754">
        <ele>576.4477539</ele>
        <time>2016-02-05T11:17:26Z</time>
      </trkpt>
      <trkpt lat="44.25837" lon="5.87773">
        <ele>576.4477539</ele>
        <time>2016-02-05T11:17:30Z</time>
      </trkpt>
      <trkpt lat="44.25752" lon="5.87893">
        <ele>573.5639648</ele>
        <time>2016-02-05T11:17:48Z</time>
      </trkpt>
      <trkpt lat="44.25689" lon="5.87972">
        <ele>572.6025391</ele>
        <time>2016-02-05T11:18:03Z</time>
      </trkpt>
      <trkpt lat="44.2566" lon="5.88002">
        <ele>572.6025391</ele>
        <time>2016-02-05T11:18:10Z</time>
      </trkpt>
      <trkpt lat="44.25582" lon="5.88097">
        <ele>573.083252</ele>
        <time>2016-02-05T11:18:33Z</time>
      </trkpt>
      <trkpt lat="44.25554" lon="5.88169">
        <ele>573.5639648</ele>
        <time>2016-02-05T11:18:51Z</time>
      </trkpt>
      <trkpt lat="44.25538" lon="5.88177">
        <ele>571.6408691</ele>
        <time>2016-02-05T11:18:56Z</time>
      </trkpt>
      <trkpt lat="44.25481" lon="5.88187">
        <ele>568.7570801</ele>
        <time>2016-02-05T11:19:05Z</time>
      </trkpt>
      <trkpt lat="44.25422" lon="5.88198">
        <ele>565.873291</ele>
        <time>2016-02-05T11:19:13Z</time>
      </trkpt>
      <trkpt lat="44.25414" lon="5.88199">
        <ele>565.873291</ele>
        <time>2016-02-05T11:19:14Z</time>
      </trkpt>
      <trkpt lat="44.2537" lon="5.88236">
        <ele>563.9504395</ele>
        <time>2016-02-05T11:19:22Z</time>
      </trkpt>
      <trkpt lat="44.25322" lon="5.88315">
        <ele>561.5473633</ele>
        <time>2016-02-05T11:19:32Z</time>
      </trkpt>
      <trkpt lat="44.25296" lon="5.88337">
        <ele>559.144043</ele>
        <time>2016-02-05T11:19:35Z</time>
      </trkpt>
      <trkpt lat="44.25278" lon="5.88346">
        <ele>557.7021484</ele>
        <time>2016-02-05T11:19:37Z</time>
      </trkpt>
      <trkpt lat="44.25219" lon="5.88397">
        <ele>558.1828613</ele>
        <time>2016-02-05T11:19:47Z</time>
      </trkpt>
      <trkpt lat="44.25172" lon="5.88423">
        <ele>559.6247559</ele>
        <time>2016-02-05T11:20:02Z</time>
      </trkpt>
      <trkpt lat="44.2514" lon="5.88441">
        <ele>562.9892578</ele>
        <time>2016-02-05T11:20:17Z</time>
      </trkpt>
      <trkpt lat="44.25107" lon="5.88455">
        <ele>565.3925781</ele>
        <time>2016-02-05T11:20:35Z</time>
      </trkpt>
      <trkpt lat="44.25084" lon="5.8848">
        <ele>566.8344727</ele>
        <time>2016-02-05T11:20:50Z</time>
      </trkpt>
      <trkpt lat="44.25083" lon="5.88481">
        <ele>566.8344727</ele>
        <time>2016-02-05T11:20:51Z</time>
      </trkpt>
      <trkpt lat="44.25067" lon="5.88505">
        <ele>566.3537598</ele>
        <time>2016-02-05T11:21:00Z</time>
      </trkpt>
      <trkpt lat="44.25013" lon="5.88584">
        <ele>562.9892578</ele>
        <time>2016-02-05T11:21:13Z</time>
      </trkpt>
      <trkpt lat="44.24948" lon="5.88662">
        <ele>560.1052246</ele>
        <time>2016-02-05T11:21:24Z</time>
      </trkpt>
      <trkpt lat="44.24873" lon="5.88719">
        <ele>557.2214355</ele>
        <time>2016-02-05T11:21:34Z</time>
      </trkpt>
      <trkpt lat="44.24824" lon="5.88747">
        <ele>554.3374023</ele>
        <time>2016-02-05T11:21:40Z</time>
      </trkpt>
      <trkpt lat="44.24807" lon="5.88757">
        <ele>552.8952637</ele>
        <time>2016-02-05T11:21:42Z</time>
      </trkpt>
      <trkpt lat="44.24766" lon="5.88785">
        <ele>550.9726563</ele>
        <time>2016-02-05T11:21:47Z</time>
      </trkpt>
      <trkpt lat="44.24732" lon="5.88808">
        <ele>549.0500488</ele>
        <time>2016-02-05T11:21:51Z</time>
      </trkpt>
      <trkpt lat="44.24657" lon="5.88859">
        <ele>545.6855469</ele>
        <time>2016-02-05T11:22:00Z</time>
      </trkpt>
      <trkpt lat="44.24582" lon="5.8891">
        <ele>542.3209229</ele>
        <time>2016-02-05T11:22:09Z</time>
      </trkpt>
      <trkpt lat="44.24574" lon="5.88917">
        <ele>542.3209229</ele>
        <time>2016-02-05T11:22:10Z</time>
      </trkpt>
      <trkpt lat="44.24559" lon="5.88933">
        <ele>541.3594971</ele>
        <time>2016-02-05T11:22:12Z</time>
      </trkpt>
      <trkpt lat="44.24546" lon="5.88953">
        <ele>540.8789063</ele>
        <time>2016-02-05T11:22:14Z</time>
      </trkpt>
      <trkpt lat="44.2453" lon="5.88987">
        <ele>538.9562988</ele>
        <time>2016-02-05T11:22:17Z</time>
      </trkpt>
      <trkpt lat="44.24468" lon="5.89108">
        <ele>535.5915527</ele>
        <time>2016-02-05T11:22:29Z</time>
      </trkpt>
      <trkpt lat="44.24383" lon="5.89201">
        <ele>535.5915527</ele>
        <time>2016-02-05T11:22:45Z</time>
      </trkpt>
      <trkpt lat="44.24263" lon="5.89333">
        <ele>533.6689453</ele>
        <time>2016-02-05T11:23:10Z</time>
      </trkpt>
      <trkpt lat="44.24147" lon="5.89461">
        <ele>532.7077637</ele>
        <time>2016-02-05T11:23:34Z</time>
      </trkpt>
      <trkpt lat="44.24016" lon="5.89605">
        <ele>531.2657471</ele>
        <time>2016-02-05T11:24:01Z</time>
      </trkpt>
      <trkpt lat="44.23897" lon="5.89739">
        <ele>530.3044434</ele>
        <time>2016-02-05T11:24:24Z</time>
      </trkpt>
      <trkpt lat="44.23784" lon="5.89862">
        <ele>529.8237305</ele>
        <time>2016-02-05T11:24:48Z</time>
      </trkpt>
      <trkpt lat="44.23748" lon="5.89901">
        <ele>528.3818359</ele>
        <time>2016-02-05T11:24:56Z</time>
      </trkpt>
      <trkpt lat="44.23624" lon="5.90039">
        <ele>527.901001</ele>
        <time>2016-02-05T11:25:22Z</time>
      </trkpt>
      <trkpt lat="44.23556" lon="5.90115">
        <ele>525.4978027</ele>
        <time>2016-02-05T11:25:34Z</time>
      </trkpt>
      <trkpt lat="44.23474" lon="5.90208">
        <ele>521.6525879</ele>
        <time>2016-02-05T11:25:46Z</time>
      </trkpt>
      <trkpt lat="44.23386" lon="5.90309">
        <ele>520.6912842</ele>
        <time>2016-02-05T11:26:01Z</time>
      </trkpt>
      <trkpt lat="44.23302" lon="5.90401">
        <ele>519.7298584</ele>
        <time>2016-02-05T11:26:19Z</time>
      </trkpt>
      <trkpt lat="44.23283" lon="5.90432">
        <ele>519.7298584</ele>
        <time>2016-02-05T11:26:24Z</time>
      </trkpt>
      <trkpt lat="44.23263" lon="5.90455">
        <ele>519.7298584</ele>
        <time>2016-02-05T11:26:29Z</time>
      </trkpt>
      <trkpt lat="44.23255" lon="5.90465">
        <ele>520.2105713</ele>
        <time>2016-02-05T11:26:31Z</time>
      </trkpt>
      <trkpt lat="44.23228" lon="5.90485">
        <ele>519.7298584</ele>
        <time>2016-02-05T11:26:36Z</time>
      </trkpt>
      <trkpt lat="44.23104" lon="5.90626">
        <ele>519.2492676</ele>
        <time>2016-02-05T11:27:02Z</time>
      </trkpt>
      <trkpt lat="44.22984" lon="5.90759">
        <ele>516.8459473</ele>
        <time>2016-02-05T11:27:25Z</time>
      </trkpt>
      <trkpt lat="44.22878" lon="5.90875">
        <ele>515.8846436</ele>
        <time>2016-02-05T11:27:46Z</time>
      </trkpt>
      <trkpt lat="44.22761" lon="5.91005">
        <ele>514.442627</ele>
        <time>2016-02-05T11:28:10Z</time>
      </trkpt>
      <trkpt lat="44.22634" lon="5.91146">
        <ele>514.9233398</ele>
        <time>2016-02-05T11:28:36Z</time>
      </trkpt>
      <trkpt lat="44.22511" lon="5.91305">
        <ele>513.4814453</ele>
        <time>2016-02-05T11:29:02Z</time>
      </trkpt>
      <trkpt lat="44.22503" lon="5.91322">
        <ele>512.5200195</ele>
        <time>2016-02-05T11:29:05Z</time>
      </trkpt>
      <trkpt lat="44.22489" lon="5.91338">
        <ele>512.5200195</ele>
        <time>2016-02-05T11:29:09Z</time>
      </trkpt>
      <trkpt lat="44.22476" lon="5.91392">
        <ele>513.0007324</ele>
        <time>2016-02-05T11:29:18Z</time>
      </trkpt>
      <trkpt lat="44.22508" lon="5.91419">
        <ele>513.9620361</ele>
        <time>2016-02-05T11:29:26Z</time>
      </trkpt>
      <trkpt lat="44.22535" lon="5.91436">
        <ele>513.0007324</ele>
        <time>2016-02-05T11:29:32Z</time>
      </trkpt>
      <trkpt lat="44.22548" lon="5.91457">
        <ele>513.9620361</ele>
        <time>2016-02-05T11:29:36Z</time>
      </trkpt>
      <trkpt lat="44.22574" lon="5.91564">
        <ele>513.9620361</ele>
        <time>2016-02-05T11:29:54Z</time>
      </trkpt>
      <trkpt lat="44.22586" lon="5.91623">
        <ele>515.4040527</ele>
        <time>2016-02-05T11:30:04Z</time>
      </trkpt>
      <trkpt lat="44.22628" lon="5.91715">
        <ele>515.4040527</ele>
        <time>2016-02-05T11:30:21Z</time>
      </trkpt>
      <trkpt lat="44.22703" lon="5.91791">
        <ele>515.4040527</ele>
        <time>2016-02-05T11:30:42Z</time>
      </trkpt>
      <trkpt lat="44.22792" lon="5.91817">
        <ele>516.8459473</ele>
        <time>2016-02-05T11:31:03Z</time>
      </trkpt>
      <trkpt lat="44.22813" lon="5.91816">
        <ele>516.8459473</ele>
        <time>2016-02-05T11:31:08Z</time>
      </trkpt>
      <trkpt lat="44.22908" lon="5.91785">
        <ele>517.807251</ele>
        <time>2016-02-05T11:31:32Z</time>
      </trkpt>
      <trkpt lat="44.23002" lon="5.91746">
        <ele>517.807251</ele>
        <time>2016-02-05T11:31:56Z</time>
      </trkpt>
      <trkpt lat="44.23111" lon="5.91704">
        <ele>517.3266602</ele>
        <time>2016-02-05T11:32:22Z</time>
      </trkpt>
      <trkpt lat="44.23204" lon="5.91666">
        <ele>517.807251</ele>
        <time>2016-02-05T11:32:45Z</time>
      </trkpt>
      <trkpt lat="44.23337" lon="5.91612">
        <ele>518.7685547</ele>
        <time>2016-02-05T11:33:18Z</time>
      </trkpt>
      <trkpt lat="44.23453" lon="5.91567">
        <ele>518.2878418</ele>
        <time>2016-02-05T11:33:46Z</time>
      </trkpt>
      <trkpt lat="44.23544" lon="5.91533">
        <ele>518.7685547</ele>
        <time>2016-02-05T11:34:08Z</time>
      </trkpt>
      <trkpt lat="44.23639" lon="5.91485">
        <ele>520.2105713</ele>
        <time>2016-02-05T11:34:34Z</time>
      </trkpt>
      <trkpt lat="44.23701" lon="5.91446">
        <ele>521.1719971</ele>
        <time>2016-02-05T11:34:52Z</time>
      </trkpt>
      <trkpt lat="44.2376" lon="5.91435">
        <ele>521.6525879</ele>
        <time>2016-02-05T11:35:11Z</time>
      </trkpt>
      <trkpt lat="44.23789" lon="5.91414">
        <ele>523.0946045</ele>
        <time>2016-02-05T11:35:21Z</time>
      </trkpt>
      <trkpt lat="44.23782" lon="5.91368">
        <ele>521.6525879</ele>
        <time>2016-02-05T11:35:31Z</time>
      </trkpt>
      <trkpt lat="44.23777" lon="5.91338">
        <ele>522.1331787</ele>
        <time>2016-02-05T11:35:36Z</time>
      </trkpt>
      <trkpt lat="44.23787" lon="5.91228">
        <ele>520.6912842</ele>
        <time>2016-02-05T11:35:52Z</time>
      </trkpt>
      <trkpt lat="44.23797" lon="5.91204">
        <ele>520.6912842</ele>
        <time>2016-02-05T11:35:56Z</time>
      </trkpt>
      <trkpt lat="44.2381" lon="5.91186">
        <ele>521.1719971</ele>
        <time>2016-02-05T11:36:00Z</time>
      </trkpt>
      <trkpt lat="44.23822" lon="5.91175">
        <ele>521.1719971</ele>
        <time>2016-02-05T11:36:03Z</time>
      </trkpt>
      <trkpt lat="44.23879" lon="5.91166">
        <ele>522.1331787</ele>
        <time>2016-02-05T11:36:18Z</time>
      </trkpt>
      <trkpt lat="44.23922" lon="5.91212">
        <ele>524.0557861</ele>
        <time>2016-02-05T11:36:35Z</time>
      </trkpt>
      <trkpt lat="44.23944" lon="5.91301">
        <ele>526.4591064</ele>
        <time>2016-02-05T11:36:59Z</time>
      </trkpt>
      <trkpt lat="44.2396" lon="5.91374">
        <ele>527.4204102</ele>
        <time>2016-02-05T11:37:19Z</time>
      </trkpt>
      <trkpt lat="44.23975" lon="5.91451">
        <ele>527.901001</ele>
        <time>2016-02-05T11:37:36Z</time>
      </trkpt>
      <trkpt lat="44.24009" lon="5.91562">
        <ele>525.4978027</ele>
        <time>2016-02-05T11:37:52Z</time>
      </trkpt>
      <trkpt lat="44.24074" lon="5.91634">
        <ele>522.1331787</ele>
        <time>2016-02-05T11:38:03Z</time>
      </trkpt>
      <trkpt lat="44.24144" lon="5.9169">
        <ele>521.1719971</ele>
        <time>2016-02-05T11:38:18Z</time>
      </trkpt>
      <trkpt lat="44.24238" lon="5.91762">
        <ele>522.1331787</ele>
        <time>2016-02-05T11:38:43Z</time>
      </trkpt>
      <trkpt lat="44.24314" lon="5.9182">
        <ele>522.1331787</ele>
        <time>2016-02-05T11:39:05Z</time>
      </trkpt>
      <trkpt lat="44.24406" lon="5.9186">
        <ele>522.6138916</ele>
        <time>2016-02-05T11:39:27Z</time>
      </trkpt>
      <trkpt lat="44.24476" lon="5.91869">
        <ele>519.2492676</ele>
        <time>2016-02-05T11:39:38Z</time>
      </trkpt>
      <trkpt lat="44.2456" lon="5.91883">
        <ele>515.8846436</ele>
        <time>2016-02-05T11:39:49Z</time>
      </trkpt>
      <trkpt lat="44.24607" lon="5.91905">
        <ele>513.4814453</ele>
        <time>2016-02-05T11:39:55Z</time>
      </trkpt>
      <trkpt lat="44.24653" lon="5.91941">
        <ele>510.1166992</ele>
        <time>2016-02-05T11:40:01Z</time>
      </trkpt>
      <trkpt lat="44.24661" lon="5.91948">
        <ele>510.1166992</ele>
        <time>2016-02-05T11:40:02Z</time>
      </trkpt>
      <trkpt lat="44.2472" lon="5.92008">
        <ele>506.2714844</ele>
        <time>2016-02-05T11:40:10Z</time>
      </trkpt>
      <trkpt lat="44.24727" lon="5.92016">
        <ele>506.2714844</ele>
        <time>2016-02-05T11:40:11Z</time>
      </trkpt>
      <trkpt lat="44.24756" lon="5.92046">
        <ele>504.8294678</ele>
        <time>2016-02-05T11:40:15Z</time>
      </trkpt>
      <trkpt lat="44.24792" lon="5.92083">
        <ele>503.3874512</ele>
        <time>2016-02-05T11:40:20Z</time>
      </trkpt>
      <trkpt lat="44.24845" lon="5.92162">
        <ele>500.0229492</ele>
        <time>2016-02-05T11:40:29Z</time>
      </trkpt>
      <trkpt lat="44.2485" lon="5.92171">
        <ele>500.0229492</ele>
        <time>2016-02-05T11:40:30Z</time>
      </trkpt>
      <trkpt lat="44.24892" lon="5.92239">
        <ele>496.6583252</ele>
        <time>2016-02-05T11:40:38Z</time>
      </trkpt>
      <trkpt lat="44.24897" lon="5.92247">
        <ele>496.6583252</ele>
        <time>2016-02-05T11:40:39Z</time>
      </trkpt>
      <trkpt lat="44.2494" lon="5.92318">
        <ele>493.774292</ele>
        <time>2016-02-05T11:40:47Z</time>
      </trkpt>
      <trkpt lat="44.25011" lon="5.92409">
        <ele>493.2935791</ele>
        <time>2016-02-05T11:40:59Z</time>
      </trkpt>
      <trkpt lat="44.25053" lon="5.92459">
        <ele>493.774292</ele>
        <time>2016-02-05T11:41:11Z</time>
      </trkpt>
      <trkpt lat="44.25087" lon="5.92518">
        <ele>495.6968994</ele>
        <time>2016-02-05T11:41:30Z</time>
      </trkpt>
      <trkpt lat="44.25116" lon="5.92582">
        <ele>497.6196289</ele>
        <time>2016-02-05T11:41:51Z</time>
      </trkpt>
      <trkpt lat="44.25142" lon="5.92645">
        <ele>499.5422363</ele>
        <time>2016-02-05T11:42:10Z</time>
      </trkpt>
      <trkpt lat="44.25173" lon="5.9272">
        <ele>500.0229492</ele>
        <time>2016-02-05T11:42:31Z</time>
      </trkpt>
      <trkpt lat="44.252" lon="5.92799">
        <ele>502.9067383</ele>
        <time>2016-02-05T11:42:54Z</time>
      </trkpt>
      <trkpt lat="44.25204" lon="5.92859">
        <ele>505.3101807</ele>
        <time>2016-02-05T11:43:11Z</time>
      </trkpt>
      <trkpt lat="44.25221" lon="5.9295">
        <ele>507.713501</ele>
        <time>2016-02-05T11:43:37Z</time>
      </trkpt>
      <trkpt lat="44.25225" lon="5.92959">
        <ele>508.1940918</ele>
        <time>2016-02-05T11:43:40Z</time>
      </trkpt>
      <trkpt lat="44.25261" lon="5.92976">
        <ele>511.0780029</ele>
        <time>2016-02-05T11:43:56Z</time>
      </trkpt>
      <trkpt lat="44.25296" lon="5.93003">
        <ele>513.4814453</ele>
        <time>2016-02-05T11:44:16Z</time>
      </trkpt>
      <trkpt lat="44.25331" lon="5.9302">
        <ele>517.3266602</ele>
        <time>2016-02-05T11:44:36Z</time>
      </trkpt>
      <trkpt lat="44.25374" lon="5.93019">
        <ele>519.7298584</ele>
        <time>2016-02-05T11:44:57Z</time>
      </trkpt>
      <trkpt lat="44.25409" lon="5.93009">
        <ele>521.6525879</ele>
        <time>2016-02-05T11:45:15Z</time>
      </trkpt>
      <trkpt lat="44.2544" lon="5.93001">
        <ele>523.0946045</ele>
        <time>2016-02-05T11:45:31Z</time>
      </trkpt>
      <trkpt lat="44.2548" lon="5.92993">
        <ele>525.9783936</ele>
        <time>2016-02-05T11:45:52Z</time>
      </trkpt>
      <trkpt lat="44.2552" lon="5.92986">
        <ele>528.3818359</ele>
        <time>2016-02-05T11:46:13Z</time>
      </trkpt>
      <trkpt lat="44.25573" lon="5.92982">
        <ele>528.8625488</ele>
        <time>2016-02-05T11:46:32Z</time>
      </trkpt>
      <trkpt lat="44.25619" lon="5.92975">
        <ele>529.8237305</ele>
        <time>2016-02-05T11:46:47Z</time>
      </trkpt>
      <trkpt lat="44.25631" lon="5.92973">
        <ele>528.3818359</ele>
        <time>2016-02-05T11:47:01Z</time>
      </trkpt>
      <trkpt lat="44.25631" lon="5.92973">
        <ele>528.3818359</ele>
        <time>2016-02-05T11:47:46Z</time>
      </trkpt>
      <trkpt lat="44.25631" lon="5.92973">
        <ele>526.9398193</ele>
        <time>2016-02-05T11:48:03Z</time>
      </trkpt>
      <trkpt lat="44.25633" lon="5.92971">
        <ele>530.3044434</ele>
        <time>2016-02-05T11:48:35Z</time>
      </trkpt>
      <trkpt lat="44.25669" lon="5.92955">
        <ele>528.8625488</ele>
        <time>2016-02-05T11:48:49Z</time>
      </trkpt>
      <trkpt lat="44.25713" lon="5.92937">
        <ele>529.8237305</ele>
        <time>2016-02-05T11:49:02Z</time>
      </trkpt>
      <trkpt lat="44.2575" lon="5.9292">
        <ele>529.3431396</ele>
        <time>2016-02-05T11:49:13Z</time>
      </trkpt>
      <trkpt lat="44.25819" lon="5.92889">
        <ele>529.8237305</ele>
        <time>2016-02-05T11:49:34Z</time>
      </trkpt>
      <trkpt lat="44.25856" lon="5.92877">
        <ele>529.8237305</ele>
        <time>2016-02-05T11:49:45Z</time>
      </trkpt>
      <trkpt lat="44.25866" lon="5.92875">
        <ele>532.2270508</ele>
        <time>2016-02-05T11:49:48Z</time>
      </trkpt>
      <trkpt lat="44.25929" lon="5.92865">
        <ele>531.7463379</ele>
        <time>2016-02-05T11:50:06Z</time>
      </trkpt>
      <trkpt lat="44.2601" lon="5.92889">
        <ele>531.2657471</ele>
        <time>2016-02-05T11:50:29Z</time>
      </trkpt>
      <trkpt lat="44.26095" lon="5.92935">
        <ele>532.7077637</ele>
        <time>2016-02-05T11:50:55Z</time>
      </trkpt>
      <trkpt lat="44.26156" lon="5.92955">
        <ele>535.1109619</ele>
        <time>2016-02-05T11:51:14Z</time>
      </trkpt>
      <trkpt lat="44.26246" lon="5.92956">
        <ele>535.5915527</ele>
        <time>2016-02-05T11:51:42Z</time>
      </trkpt>
      <trkpt lat="44.26313" lon="5.92956">
        <ele>535.5915527</ele>
        <time>2016-02-05T11:52:02Z</time>
      </trkpt>
      <trkpt lat="44.26418" lon="5.92959">
        <ele>537.5142822</ele>
        <time>2016-02-05T11:52:31Z</time>
      </trkpt>
      <trkpt lat="44.26494" lon="5.92957">
        <ele>537.0336914</ele>
        <time>2016-02-05T11:52:53Z</time>
      </trkpt>
      <trkpt lat="44.26573" lon="5.92962">
        <ele>537.5142822</ele>
        <time>2016-02-05T11:53:15Z</time>
      </trkpt>
      <trkpt lat="44.26663" lon="5.92983">
        <ele>537.0336914</ele>
        <time>2016-02-05T11:53:41Z</time>
      </trkpt>
      <trkpt lat="44.26734" lon="5.93004">
        <ele>537.5142822</ele>
        <time>2016-02-05T11:54:01Z</time>
      </trkpt>
      <trkpt lat="44.26823" lon="5.93028">
        <ele>538.475708</ele>
        <time>2016-02-05T11:54:26Z</time>
      </trkpt>
      <trkpt lat="44.26902" lon="5.93079">
        <ele>538.475708</ele>
        <time>2016-02-05T11:54:50Z</time>
      </trkpt>
      <trkpt lat="44.2696" lon="5.93102">
        <ele>538.9562988</ele>
        <time>2016-02-05T11:55:10Z</time>
      </trkpt>
      <trkpt lat="44.27025" lon="5.93127">
        <ele>539.9176025</ele>
        <time>2016-02-05T11:55:31Z</time>
      </trkpt>
      <trkpt lat="44.27089" lon="5.93149">
        <ele>539.9176025</ele>
        <time>2016-02-05T11:55:50Z</time>
      </trkpt>
      <trkpt lat="44.27173" lon="5.93174">
        <ele>540.3983154</ele>
        <time>2016-02-05T11:56:15Z</time>
      </trkpt>
      <trkpt lat="44.27262" lon="5.932">
        <ele>540.3983154</ele>
        <time>2016-02-05T11:56:41Z</time>
      </trkpt>
      <trkpt lat="44.27346" lon="5.93216">
        <ele>540.8789063</ele>
        <time>2016-02-05T11:57:04Z</time>
      </trkpt>
      <trkpt lat="44.27421" lon="5.93231">
        <ele>540.8789063</ele>
        <time>2016-02-05T11:57:26Z</time>
      </trkpt>
      <trkpt lat="44.27506" lon="5.93241">
        <ele>542.3209229</ele>
        <time>2016-02-05T11:57:50Z</time>
      </trkpt>
      <trkpt lat="44.27587" lon="5.93253">
        <ele>542.3209229</ele>
        <time>2016-02-05T11:58:13Z</time>
      </trkpt>
      <trkpt lat="44.27663" lon="5.9329">
        <ele>542.8015137</ele>
        <time>2016-02-05T11:58:36Z</time>
      </trkpt>
      <trkpt lat="44.27727" lon="5.93301">
        <ele>543.7628174</ele>
        <time>2016-02-05T11:58:53Z</time>
      </trkpt>
      <trkpt lat="44.27792" lon="5.93311">
        <ele>544.2436523</ele>
        <time>2016-02-05T11:59:12Z</time>
      </trkpt>
      <trkpt lat="44.27871" lon="5.93338">
        <ele>545.204834</ele>
        <time>2016-02-05T11:59:35Z</time>
      </trkpt>
      <trkpt lat="44.27946" lon="5.93362">
        <ele>545.204834</ele>
        <time>2016-02-05T11:59:57Z</time>
      </trkpt>
      <trkpt lat="44.28012" lon="5.9338">
        <ele>545.6855469</ele>
        <time>2016-02-05T12:00:16Z</time>
      </trkpt>
      <trkpt lat="44.28095" lon="5.93403">
        <ele>546.1662598</ele>
        <time>2016-02-05T12:00:41Z</time>
      </trkpt>
      <trkpt lat="44.28192" lon="5.93417">
        <ele>546.6468506</ele>
        <time>2016-02-05T12:01:09Z</time>
      </trkpt>
      <trkpt lat="44.28257" lon="5.93426">
        <ele>546.1662598</ele>
        <time>2016-02-05T12:01:27Z</time>
      </trkpt>
      <trkpt lat="44.28327" lon="5.93436">
        <ele>546.6468506</ele>
        <time>2016-02-05T12:01:46Z</time>
      </trkpt>
      <trkpt lat="44.28396" lon="5.93445">
        <ele>547.1274414</ele>
        <time>2016-02-05T12:02:06Z</time>
      </trkpt>
      <trkpt lat="44.28494" lon="5.93441">
        <ele>547.6081543</ele>
        <time>2016-02-05T12:02:34Z</time>
      </trkpt>
      <trkpt lat="44.28554" lon="5.93436">
        <ele>547.6081543</ele>
        <time>2016-02-05T12:02:53Z</time>
      </trkpt>
      <trkpt lat="44.28617" lon="5.93425">
        <ele>548.0888672</ele>
        <time>2016-02-05T12:03:14Z</time>
      </trkpt>
      <trkpt lat="44.2869" lon="5.93411">
        <ele>548.5693359</ele>
        <time>2016-02-05T12:03:39Z</time>
      </trkpt>
      <trkpt lat="44.28782" lon="5.93396">
        <ele>549.0500488</ele>
        <time>2016-02-05T12:04:07Z</time>
      </trkpt>
      <trkpt lat="44.28869" lon="5.93389">
        <ele>549.5307617</ele>
        <time>2016-02-05T12:04:33Z</time>
      </trkpt>
      <trkpt lat="44.28952" lon="5.9339">
        <ele>551.934082</ele>
        <time>2016-02-05T12:04:58Z</time>
      </trkpt>
      <trkpt lat="44.28959" lon="5.9339">
        <ele>552.4145508</ele>
        <time>2016-02-05T12:05:00Z</time>
      </trkpt>
      <trkpt lat="44.29042" lon="5.93394">
        <ele>550.4921875</ele>
        <time>2016-02-05T12:05:23Z</time>
      </trkpt>
      <trkpt lat="44.29125" lon="5.93399">
        <ele>550.9726563</ele>
        <time>2016-02-05T12:05:47Z</time>
      </trkpt>
      <trkpt lat="44.29212" lon="5.93385">
        <ele>551.934082</ele>
        <time>2016-02-05T12:06:12Z</time>
      </trkpt>
      <trkpt lat="44.29291" lon="5.93371">
        <ele>552.8952637</ele>
        <time>2016-02-05T12:06:35Z</time>
      </trkpt>
      <trkpt lat="44.29369" lon="5.9337">
        <ele>550.4921875</ele>
        <time>2016-02-05T12:06:57Z</time>
      </trkpt>
      <trkpt lat="44.29374" lon="5.9337">
        <ele>550.4921875</ele>
        <time>2016-02-05T12:06:58Z</time>
      </trkpt>
      <trkpt lat="44.29379" lon="5.9337">
        <ele>550.4921875</ele>
        <time>2016-02-05T12:06:59Z</time>
      </trkpt>
      <trkpt lat="44.29409" lon="5.93373">
        <ele>549.5307617</ele>
        <time>2016-02-05T12:07:04Z</time>
      </trkpt>
      <trkpt lat="44.29469" lon="5.93396">
        <ele>546.6468506</ele>
        <time>2016-02-05T12:07:12Z</time>
      </trkpt>
      <trkpt lat="44.29487" lon="5.93398">
        <ele>545.204834</ele>
        <time>2016-02-05T12:07:14Z</time>
      </trkpt>
      <trkpt lat="44.29583" lon="5.93384">
        <ele>541.84021</ele>
        <time>2016-02-05T12:07:25Z</time>
      </trkpt>
      <trkpt lat="44.29591" lon="5.93383">
        <ele>541.84021</ele>
        <time>2016-02-05T12:07:26Z</time>
      </trkpt>
      <trkpt lat="44.2964" lon="5.93375">
        <ele>538.475708</ele>
        <time>2016-02-05T12:07:32Z</time>
      </trkpt>
      <trkpt lat="44.29648" lon="5.93374">
        <ele>538.475708</ele>
        <time>2016-02-05T12:07:33Z</time>
      </trkpt>
      <trkpt lat="44.29767" lon="5.93358">
        <ele>535.5915527</ele>
        <time>2016-02-05T12:07:51Z</time>
      </trkpt>
      <trkpt lat="44.29837" lon="5.93338">
        <ele>534.1496582</ele>
        <time>2016-02-05T12:08:08Z</time>
      </trkpt>
      <trkpt lat="44.29921" lon="5.93315">
        <ele>533.1883545</ele>
        <time>2016-02-05T12:08:30Z</time>
      </trkpt>
      <trkpt lat="44.29978" lon="5.93323">
        <ele>534.1496582</ele>
        <time>2016-02-05T12:08:48Z</time>
      </trkpt>
      <trkpt lat="44.30045" lon="5.93344">
        <ele>535.1109619</ele>
        <time>2016-02-05T12:09:11Z</time>
      </trkpt>
      <trkpt lat="44.30121" lon="5.93335">
        <ele>533.6689453</ele>
        <time>2016-02-05T12:09:31Z</time>
      </trkpt>
      <trkpt lat="44.3018" lon="5.93324">
        <ele>532.7077637</ele>
        <time>2016-02-05T12:09:47Z</time>
      </trkpt>
      <trkpt lat="44.30249" lon="5.93318">
        <ele>531.2657471</ele>
        <time>2016-02-05T12:10:06Z</time>
      </trkpt>
      <trkpt lat="44.30251" lon="5.93319">
        <ele>530.7851563</ele>
        <time>2016-02-05T12:10:19Z</time>
      </trkpt>
      <trkpt lat="44.30253" lon="5.9332">
        <ele>531.2657471</ele>
        <time>2016-02-05T12:12:29Z</time>
      </trkpt>
      <trkpt lat="44.30293" lon="5.93309">
        <ele>532.2270508</ele>
        <time>2016-02-05T12:12:44Z</time>
      </trkpt>
      <trkpt lat="44.30355" lon="5.93285">
        <ele>532.2270508</ele>
        <time>2016-02-05T12:13:03Z</time>
      </trkpt>
      <trkpt lat="44.30443" lon="5.93251">
        <ele>532.2270508</ele>
        <time>2016-02-05T12:13:31Z</time>
      </trkpt>
      <trkpt lat="44.30519" lon="5.93223">
        <ele>532.2270508</ele>
        <time>2016-02-05T12:13:55Z</time>
      </trkpt>
      <trkpt lat="44.30587" lon="5.93198">
        <ele>533.1883545</ele>
        <time>2016-02-05T12:14:17Z</time>
      </trkpt>
      <trkpt lat="44.3066" lon="5.93159">
        <ele>532.7077637</ele>
        <time>2016-02-05T12:14:41Z</time>
      </trkpt>
      <trkpt lat="44.30729" lon="5.93119">
        <ele>531.7463379</ele>
        <time>2016-02-05T12:15:01Z</time>
      </trkpt>
      <trkpt lat="44.30803" lon="5.93079">
        <ele>531.2657471</ele>
        <time>2016-02-05T12:15:23Z</time>
      </trkpt>
      <trkpt lat="44.30896" lon="5.93028">
        <ele>531.7463379</ele>
        <time>2016-02-05T12:15:53Z</time>
      </trkpt>
      <trkpt lat="44.30955" lon="5.92997">
        <ele>532.7077637</ele>
        <time>2016-02-05T12:16:14Z</time>
      </trkpt>
      <trkpt lat="44.30996" lon="5.92974">
        <ele>534.6303711</ele>
        <time>2016-02-05T12:16:34Z</time>
      </trkpt>
      <trkpt lat="44.31035" lon="5.92949">
        <ele>537.0336914</ele>
        <time>2016-02-05T12:16:55Z</time>
      </trkpt>
      <trkpt lat="44.31088" lon="5.92918">
        <ele>537.0336914</ele>
        <time>2016-02-05T12:17:16Z</time>
      </trkpt>
      <trkpt lat="44.3111" lon="5.92907">
        <ele>536.5531006</ele>
        <time>2016-02-05T12:17:22Z</time>
      </trkpt>
      <trkpt lat="44.31149" lon="5.92915">
        <ele>535.1109619</ele>
        <time>2016-02-05T12:17:30Z</time>
      </trkpt>
      <trkpt lat="44.31166" lon="5.92933">
        <ele>533.6689453</ele>
        <time>2016-02-05T12:17:34Z</time>
      </trkpt>
      <trkpt lat="44.31183" lon="5.92949">
        <ele>533.1883545</ele>
        <time>2016-02-05T12:17:38Z</time>
      </trkpt>
      <trkpt lat="44.31207" lon="5.9297">
        <ele>533.1883545</ele>
        <time>2016-02-05T12:17:44Z</time>
      </trkpt>
      <trkpt lat="44.31233" lon="5.93013">
        <ele>532.7077637</ele>
        <time>2016-02-05T12:17:54Z</time>
      </trkpt>
      <trkpt lat="44.31255" lon="5.93008">
        <ele>532.2270508</ele>
        <time>2016-02-05T12:18:01Z</time>
      </trkpt>
      <trkpt lat="44.31272" lon="5.9298">
        <ele>533.1883545</ele>
        <time>2016-02-05T12:18:15Z</time>
      </trkpt>
      <trkpt lat="44.31272" lon="5.9293">
        <ele>534.1496582</ele>
        <time>2016-02-05T12:18:30Z</time>
      </trkpt>
      <trkpt lat="44.31243" lon="5.92881">
        <ele>536.0723877</ele>
        <time>2016-02-05T12:18:50Z</time>
      </trkpt>
      <trkpt lat="44.31252" lon="5.9284">
        <ele>536.5531006</ele>
        <time>2016-02-05T12:19:05Z</time>
      </trkpt>
      <trkpt lat="44.31268" lon="5.92797">
        <ele>537.9949951</ele>
        <time>2016-02-05T12:19:22Z</time>
      </trkpt>
      <trkpt lat="44.31298" lon="5.9277">
        <ele>539.4368896</ele>
        <time>2016-02-05T12:19:38Z</time>
      </trkpt>
      <trkpt lat="44.31329" lon="5.92757">
        <ele>539.9176025</ele>
        <time>2016-02-05T12:19:53Z</time>
      </trkpt>
      <trkpt lat="44.31355" lon="5.92741">
        <ele>539.9176025</ele>
        <time>2016-02-05T12:20:06Z</time>
      </trkpt>
      <trkpt lat="44.31401" lon="5.92708">
        <ele>540.3983154</ele>
        <time>2016-02-05T12:20:27Z</time>
      </trkpt>
      <trkpt lat="44.31445" lon="5.92688">
        <ele>541.3594971</ele>
        <time>2016-02-05T12:20:48Z</time>
      </trkpt>
      <trkpt lat="44.31481" lon="5.92661">
        <ele>542.3209229</ele>
        <time>2016-02-05T12:21:06Z</time>
      </trkpt>
      <trkpt lat="44.31516" lon="5.92643">
        <ele>542.8015137</ele>
        <time>2016-02-05T12:21:22Z</time>
      </trkpt>
      <trkpt lat="44.31549" lon="5.92614">
        <ele>544.7242432</ele>
        <time>2016-02-05T12:21:40Z</time>
      </trkpt>
      <trkpt lat="44.31568" lon="5.92593">
        <ele>544.7242432</ele>
        <time>2016-02-05T12:21:50Z</time>
      </trkpt>
      <trkpt lat="44.31589" lon="5.92562">
        <ele>546.6468506</ele>
        <time>2016-02-05T12:22:06Z</time>
      </trkpt>
      <trkpt lat="44.31611" lon="5.92516">
        <ele>548.0888672</ele>
        <time>2016-02-05T12:22:24Z</time>
      </trkpt>
      <trkpt lat="44.31635" lon="5.92474">
        <ele>549.5307617</ele>
        <time>2016-02-05T12:22:43Z</time>
      </trkpt>
      <trkpt lat="44.31638" lon="5.92464">
        <ele>550.0114746</ele>
        <time>2016-02-05T12:22:46Z</time>
      </trkpt>
      <trkpt lat="44.31668" lon="5.9242">
        <ele>551.4533691</ele>
        <time>2016-02-05T12:23:08Z</time>
      </trkpt>
      <trkpt lat="44.31692" lon="5.92392">
        <ele>553.8566895</ele>
        <time>2016-02-05T12:23:25Z</time>
      </trkpt>
      <trkpt lat="44.31721" lon="5.9236">
        <ele>554.3374023</ele>
        <time>2016-02-05T12:23:43Z</time>
      </trkpt>
      <trkpt lat="44.31762" lon="5.92354">
        <ele>555.298584</ele>
        <time>2016-02-05T12:24:03Z</time>
      </trkpt>
      <trkpt lat="44.3179" lon="5.9239">
        <ele>556.2600098</ele>
        <time>2016-02-05T12:24:23Z</time>
      </trkpt>
      <trkpt lat="44.31809" lon="5.92423">
        <ele>557.2214355</ele>
        <time>2016-02-05T12:24:42Z</time>
      </trkpt>
      <trkpt lat="44.3183" lon="5.92465">
        <ele>558.1828613</ele>
        <time>2016-02-05T12:24:59Z</time>
      </trkpt>
      <trkpt lat="44.31862" lon="5.92466">
        <ele>558.6633301</ele>
        <time>2016-02-05T12:25:15Z</time>
      </trkpt>
      <trkpt lat="44.31866" lon="5.92463">
        <ele>558.6633301</ele>
        <time>2016-02-05T12:25:17Z</time>
      </trkpt>
      <trkpt lat="44.31872" lon="5.92426">
        <ele>561.5473633</ele>
        <time>2016-02-05T12:25:33Z</time>
      </trkpt>
      <trkpt lat="44.31865" lon="5.92385">
        <ele>563.4699707</ele>
        <time>2016-02-05T12:25:52Z</time>
      </trkpt>
      <trkpt lat="44.31855" lon="5.92344">
        <ele>566.3537598</ele>
        <time>2016-02-05T12:26:11Z</time>
      </trkpt>
      <trkpt lat="44.31851" lon="5.92333">
        <ele>566.8344727</ele>
        <time>2016-02-05T12:26:17Z</time>
      </trkpt>
      <trkpt lat="44.31838" lon="5.92288">
        <ele>569.237793</ele>
        <time>2016-02-05T12:26:38Z</time>
      </trkpt>
      <trkpt lat="44.31829" lon="5.92246">
        <ele>572.1218262</ele>
        <time>2016-02-05T12:26:58Z</time>
      </trkpt>
      <trkpt lat="44.31835" lon="5.92214">
        <ele>574.0444336</ele>
        <time>2016-02-05T12:27:14Z</time>
      </trkpt>
      <trkpt lat="44.31845" lon="5.92178">
        <ele>576.4477539</ele>
        <time>2016-02-05T12:27:34Z</time>
      </trkpt>
      <trkpt lat="44.31847" lon="5.92177">
        <ele>575.967041</ele>
        <time>2016-02-05T12:27:36Z</time>
      </trkpt>
      <trkpt lat="44.31868" lon="5.9216">
        <ele>578.3703613</ele>
        <time>2016-02-05T12:27:55Z</time>
      </trkpt>
      <trkpt lat="44.31884" lon="5.92155">
        <ele>578.8510742</ele>
        <time>2016-02-05T12:28:09Z</time>
      </trkpt>
      <trkpt lat="44.31887" lon="5.92153">
        <ele>578.8510742</ele>
        <time>2016-02-05T12:28:32Z</time>
      </trkpt>
      <trkpt lat="44.31887" lon="5.92152">
        <ele>578.8510742</ele>
        <time>2016-02-05T12:28:55Z</time>
      </trkpt>
      <trkpt lat="44.3189" lon="5.92149">
        <ele>579.331543</ele>
        <time>2016-02-05T12:28:58Z</time>
      </trkpt>
      <trkpt lat="44.31914" lon="5.9213">
        <ele>579.331543</ele>
        <time>2016-02-05T12:29:14Z</time>
      </trkpt>
      <trkpt lat="44.31965" lon="5.92092">
        <ele>579.8122559</ele>
        <time>2016-02-05T12:29:35Z</time>
      </trkpt>
      <trkpt lat="44.32028" lon="5.92057">
        <ele>579.8122559</ele>
        <time>2016-02-05T12:29:59Z</time>
      </trkpt>
      <trkpt lat="44.32089" lon="5.92067">
        <ele>579.8122559</ele>
        <time>2016-02-05T12:30:20Z</time>
      </trkpt>
      <trkpt lat="44.32169" lon="5.92082">
        <ele>580.2929688</ele>
        <time>2016-02-05T12:30:47Z</time>
      </trkpt>
      <trkpt lat="44.3223" lon="5.92093">
        <ele>580.2929688</ele>
        <time>2016-02-05T12:31:08Z</time>
      </trkpt>
      <trkpt lat="44.32308" lon="5.92108">
        <ele>581.7348633</ele>
        <time>2016-02-05T12:31:36Z</time>
      </trkpt>
      <trkpt lat="44.3237" lon="5.92106">
        <ele>581.2543945</ele>
        <time>2016-02-05T12:31:59Z</time>
      </trkpt>
      <trkpt lat="44.32422" lon="5.92107">
        <ele>581.2543945</ele>
        <time>2016-02-05T12:32:18Z</time>
      </trkpt>
      <trkpt lat="44.32487" lon="5.92107">
        <ele>581.7348633</ele>
        <time>2016-02-05T12:32:40Z</time>
      </trkpt>
      <trkpt lat="44.32594" lon="5.92104">
        <ele>582.2155762</ele>
        <time>2016-02-05T12:33:17Z</time>
      </trkpt>
      <trkpt lat="44.32706" lon="5.92101">
        <ele>584.1381836</ele>
        <time>2016-02-05T12:33:55Z</time>
      </trkpt>
      <trkpt lat="44.32755" lon="5.92106">
        <ele>583.6574707</ele>
        <time>2016-02-05T12:34:10Z</time>
      </trkpt>
      <trkpt lat="44.32759" lon="5.92106">
        <ele>583.6574707</ele>
        <time>2016-02-05T12:34:11Z</time>
      </trkpt>
      <trkpt lat="44.32841" lon="5.92109">
        <ele>582.2155762</ele>
        <time>2016-02-05T12:34:31Z</time>
      </trkpt>
      <trkpt lat="44.32909" lon="5.92119">
        <ele>580.7736816</ele>
        <time>2016-02-05T12:34:48Z</time>
      </trkpt>
      <trkpt lat="44.32986" lon="5.92167">
        <ele>580.2929688</ele>
        <time>2016-02-05T12:35:10Z</time>
      </trkpt>
      <trkpt lat="44.33049" lon="5.92221">
        <ele>579.331543</ele>
        <time>2016-02-05T12:35:30Z</time>
      </trkpt>
      <trkpt lat="44.33124" lon="5.92274">
        <ele>579.331543</ele>
        <time>2016-02-05T12:35:52Z</time>
      </trkpt>
      <trkpt lat="44.33165" lon="5.92302">
        <ele>580.2929688</ele>
        <time>2016-02-05T12:36:05Z</time>
      </trkpt>
      <trkpt lat="44.33221" lon="5.92339">
        <ele>579.8122559</ele>
        <time>2016-02-05T12:36:25Z</time>
      </trkpt>
      <trkpt lat="44.33278" lon="5.92377">
        <ele>579.331543</ele>
        <time>2016-02-05T12:36:45Z</time>
      </trkpt>
      <trkpt lat="44.33345" lon="5.9242">
        <ele>579.331543</ele>
        <time>2016-02-05T12:37:08Z</time>
      </trkpt>
      <trkpt lat="44.33412" lon="5.92467">
        <ele>579.331543</ele>
        <time>2016-02-05T12:37:32Z</time>
      </trkpt>
      <trkpt lat="44.33471" lon="5.92506">
        <ele>580.7736816</ele>
        <time>2016-02-05T12:37:56Z</time>
      </trkpt>
      <trkpt lat="44.33523" lon="5.92567">
        <ele>580.7736816</ele>
        <time>2016-02-05T12:38:18Z</time>
      </trkpt>
      <trkpt lat="44.33572" lon="5.92633">
        <ele>582.2155762</ele>
        <time>2016-02-05T12:38:41Z</time>
      </trkpt>
      <trkpt lat="44.33604" lon="5.92682">
        <ele>582.6962891</ele>
        <time>2016-02-05T12:38:58Z</time>
      </trkpt>
      <trkpt lat="44.33655" lon="5.92767">
        <ele>582.6962891</ele>
        <time>2016-02-05T12:39:22Z</time>
      </trkpt>
      <trkpt lat="44.3371" lon="5.92863">
        <ele>582.6962891</ele>
        <time>2016-02-05T12:39:46Z</time>
      </trkpt>
      <trkpt lat="44.33774" lon="5.92934">
        <ele>583.1767578</ele>
        <time>2016-02-05T12:40:09Z</time>
      </trkpt>
      <trkpt lat="44.33845" lon="5.93007">
        <ele>583.1767578</ele>
        <time>2016-02-05T12:40:34Z</time>
      </trkpt>
      <trkpt lat="44.33917" lon="5.93061">
        <ele>583.6574707</ele>
        <time>2016-02-05T12:40:58Z</time>
      </trkpt>
      <trkpt lat="44.33984" lon="5.93086">
        <ele>581.2543945</ele>
        <time>2016-02-05T12:41:15Z</time>
      </trkpt>
      <trkpt lat="44.34062" lon="5.93117">
        <ele>581.2543945</ele>
        <time>2016-02-05T12:41:36Z</time>
      </trkpt>
      <trkpt lat="44.34147" lon="5.93147">
        <ele>580.7736816</ele>
        <time>2016-02-05T12:42:00Z</time>
      </trkpt>
      <trkpt lat="44.34221" lon="5.93174">
        <ele>580.2929688</ele>
        <time>2016-02-05T12:42:22Z</time>
      </trkpt>
      <trkpt lat="44.343" lon="5.93205">
        <ele>580.7736816</ele>
        <time>2016-02-05T12:42:46Z</time>
      </trkpt>
      <trkpt lat="44.34365" lon="5.9323">
        <ele>579.331543</ele>
        <time>2016-02-05T12:43:05Z</time>
      </trkpt>
      <trkpt lat="44.34398" lon="5.93242">
        <ele>578.3703613</ele>
        <time>2016-02-05T12:43:14Z</time>
      </trkpt>
      <trkpt lat="44.34429" lon="5.9328">
        <ele>577.4091797</ele>
        <time>2016-02-05T12:43:23Z</time>
      </trkpt>
      <trkpt lat="44.3444" lon="5.93317">
        <ele>576.9284668</ele>
        <time>2016-02-05T12:43:28Z</time>
      </trkpt>
      <trkpt lat="44.34446" lon="5.93351">
        <ele>575.4863281</ele>
        <time>2016-02-05T12:43:32Z</time>
      </trkpt>
      <trkpt lat="44.34446" lon="5.93369">
        <ele>574.5251465</ele>
        <time>2016-02-05T12:43:34Z</time>
      </trkpt>
      <trkpt lat="44.34444" lon="5.93387">
        <ele>573.5639648</ele>
        <time>2016-02-05T12:43:36Z</time>
      </trkpt>
      <trkpt lat="44.3443" lon="5.93431">
        <ele>573.083252</ele>
        <time>2016-02-05T12:43:41Z</time>
      </trkpt>
      <trkpt lat="44.34423" lon="5.93445">
        <ele>571.6408691</ele>
        <time>2016-02-05T12:43:43Z</time>
      </trkpt>
      <trkpt lat="44.34415" lon="5.93465">
        <ele>569.7185059</ele>
        <time>2016-02-05T12:43:46Z</time>
      </trkpt>
      <trkpt lat="44.34422" lon="5.93508">
        <ele>569.237793</ele>
        <time>2016-02-05T12:43:53Z</time>
      </trkpt>
      <trkpt lat="44.3448" lon="5.93527">
        <ele>568.2763672</ele>
        <time>2016-02-05T12:44:07Z</time>
      </trkpt>
      <trkpt lat="44.34515" lon="5.93507">
        <ele>571.1604004</ele>
        <time>2016-02-05T12:44:25Z</time>
      </trkpt>
      <trkpt lat="44.34555" lon="5.93483">
        <ele>572.1218262</ele>
        <time>2016-02-05T12:44:44Z</time>
      </trkpt>
      <trkpt lat="44.34593" lon="5.93462">
        <ele>573.5639648</ele>
        <time>2016-02-05T12:45:03Z</time>
      </trkpt>
      <trkpt lat="44.34642" lon="5.9346">
        <ele>575.967041</ele>
        <time>2016-02-05T12:45:25Z</time>
      </trkpt>
      <trkpt lat="44.34683" lon="5.93502">
        <ele>577.4091797</ele>
        <time>2016-02-05T12:45:45Z</time>
      </trkpt>
      <trkpt lat="44.34736" lon="5.93561">
        <ele>578.8510742</ele>
        <time>2016-02-05T12:46:11Z</time>
      </trkpt>
      <trkpt lat="44.34776" lon="5.93604">
        <ele>579.331543</ele>
        <time>2016-02-05T12:46:31Z</time>
      </trkpt>
      <trkpt lat="44.34818" lon="5.93647">
        <ele>579.8122559</ele>
        <time>2016-02-05T12:46:51Z</time>
      </trkpt>
      <trkpt lat="44.3486" lon="5.93682">
        <ele>578.8510742</ele>
        <time>2016-02-05T12:47:05Z</time>
      </trkpt>
      <trkpt lat="44.34902" lon="5.93709">
        <ele>577.4091797</ele>
        <time>2016-02-05T12:47:15Z</time>
      </trkpt>
      <trkpt lat="44.3494" lon="5.93734">
        <ele>577.8896484</ele>
        <time>2016-02-05T12:47:27Z</time>
      </trkpt>
      <trkpt lat="44.34967" lon="5.93751">
        <ele>580.7736816</ele>
        <time>2016-02-05T12:47:41Z</time>
      </trkpt>
      <trkpt lat="44.35017" lon="5.93776">
        <ele>582.2155762</ele>
        <time>2016-02-05T12:48:04Z</time>
      </trkpt>
      <trkpt lat="44.35042" lon="5.93787">
        <ele>580.7736816</ele>
        <time>2016-02-05T12:48:12Z</time>
      </trkpt>
      <trkpt lat="44.35116" lon="5.93834">
        <ele>579.8122559</ele>
        <time>2016-02-05T12:48:34Z</time>
      </trkpt>
      <trkpt lat="44.35163" lon="5.93865">
        <ele>579.8122559</ele>
        <time>2016-02-05T12:48:53Z</time>
      </trkpt>
      <trkpt lat="44.35201" lon="5.93892">
        <ele>580.7736816</ele>
        <time>2016-02-05T12:49:11Z</time>
      </trkpt>
      <trkpt lat="44.35266" lon="5.93934">
        <ele>579.331543</ele>
        <time>2016-02-05T12:49:30Z</time>
      </trkpt>
      <trkpt lat="44.35336" lon="5.93975">
        <ele>578.8510742</ele>
        <time>2016-02-05T12:49:52Z</time>
      </trkpt>
      <trkpt lat="44.35372" lon="5.93996">
        <ele>579.331543</ele>
        <time>2016-02-05T12:50:02Z</time>
      </trkpt>
      <trkpt lat="44.35399" lon="5.9401">
        <ele>578.3703613</ele>
        <time>2016-02-05T12:50:08Z</time>
      </trkpt>
      <trkpt lat="44.35413" lon="5.9402">
        <ele>577.4091797</ele>
        <time>2016-02-05T12:50:11Z</time>
      </trkpt>
      <trkpt lat="44.35433" lon="5.94037">
        <ele>575.4863281</ele>
        <time>2016-02-05T12:50:15Z</time>
      </trkpt>
      <trkpt lat="44.35454" lon="5.94049">
        <ele>575.0058594</ele>
        <time>2016-02-05T12:50:19Z</time>
      </trkpt>
      <trkpt lat="44.35493" lon="5.94047">
        <ele>575.967041</ele>
        <time>2016-02-05T12:50:32Z</time>
      </trkpt>
      <trkpt lat="44.35538" lon="5.94048">
        <ele>578.3703613</ele>
        <time>2016-02-05T12:50:52Z</time>
      </trkpt>
      <trkpt lat="44.35582" lon="5.94069">
        <ele>580.7736816</ele>
        <time>2016-02-05T12:51:12Z</time>
      </trkpt>
      <trkpt lat="44.35623" lon="5.94094">
        <ele>580.7736816</ele>
        <time>2016-02-05T12:51:27Z</time>
      </trkpt>
      <trkpt lat="44.35686" lon="5.94128">
        <ele>580.2929688</ele>
        <time>2016-02-05T12:51:49Z</time>
      </trkpt>
      <trkpt lat="44.35737" lon="5.94156">
        <ele>582.2155762</ele>
        <time>2016-02-05T12:52:09Z</time>
      </trkpt>
      <trkpt lat="44.35806" lon="5.94206">
        <ele>580.2929688</ele>
        <time>2016-02-05T12:52:32Z</time>
      </trkpt>
      <trkpt lat="44.35866" lon="5.94276">
        <ele>578.3703613</ele>
        <time>2016-02-05T12:52:51Z</time>
      </trkpt>
      <trkpt lat="44.35885" lon="5.94309">
        <ele>577.4091797</ele>
        <time>2016-02-05T12:52:57Z</time>
      </trkpt>
      <trkpt lat="44.35898" lon="5.94327">
        <ele>576.4477539</ele>
        <time>2016-02-05T12:53:00Z</time>
      </trkpt>
      <trkpt lat="44.35942" lon="5.9437">
        <ele>576.9284668</ele>
        <time>2016-02-05T12:53:13Z</time>
      </trkpt>
      <trkpt lat="44.35972" lon="5.94422">
        <ele>575.0058594</ele>
        <time>2016-02-05T12:53:24Z</time>
      </trkpt>
      <trkpt lat="44.35984" lon="5.94434">
        <ele>575.0058594</ele>
        <time>2016-02-05T12:53:27Z</time>
      </trkpt>
      <trkpt lat="44.36028" lon="5.94453">
        <ele>575.4863281</ele>
        <time>2016-02-05T12:53:42Z</time>
      </trkpt>
      <trkpt lat="44.36089" lon="5.9447">
        <ele>574.5251465</ele>
        <time>2016-02-05T12:53:57Z</time>
      </trkpt>
      <trkpt lat="44.36101" lon="5.94473">
        <ele>573.5639648</ele>
        <time>2016-02-05T12:53:59Z</time>
      </trkpt>
      <trkpt lat="44.36138" lon="5.94482">
        <ele>570.6796875</ele>
        <time>2016-02-05T12:54:04Z</time>
      </trkpt>
      <trkpt lat="44.36146" lon="5.94485">
        <ele>568.7570801</ele>
        <time>2016-02-05T12:54:05Z</time>
      </trkpt>
      <trkpt lat="44.36169" lon="5.94501">
        <ele>567.7956543</ele>
        <time>2016-02-05T12:54:08Z</time>
      </trkpt>
      <trkpt lat="44.36181" lon="5.94517">
        <ele>563.9504395</ele>
        <time>2016-02-05T12:54:10Z</time>
      </trkpt>
      <trkpt lat="44.36236" lon="5.94551">
        <ele>562.0280762</ele>
        <time>2016-02-05T12:54:18Z</time>
      </trkpt>
      <trkpt lat="44.36276" lon="5.94551">
        <ele>562.9892578</ele>
        <time>2016-02-05T12:54:28Z</time>
      </trkpt>
      <trkpt lat="44.36305" lon="5.94558">
        <ele>565.3925781</ele>
        <time>2016-02-05T12:54:43Z</time>
      </trkpt>
      <trkpt lat="44.36324" lon="5.94572">
        <ele>569.237793</ele>
        <time>2016-02-05T12:54:56Z</time>
      </trkpt>
      <trkpt lat="44.36325" lon="5.94572">
        <ele>569.237793</ele>
        <time>2016-02-05T12:54:57Z</time>
      </trkpt>
      <trkpt lat="44.36359" lon="5.94587">
        <ele>571.1604004</ele>
        <time>2016-02-05T12:55:16Z</time>
      </trkpt>
      <trkpt lat="44.36395" lon="5.94621">
        <ele>571.6408691</ele>
        <time>2016-02-05T12:55:34Z</time>
      </trkpt>
      <trkpt lat="44.36445" lon="5.94663">
        <ele>571.6408691</ele>
        <time>2016-02-05T12:55:56Z</time>
      </trkpt>
      <trkpt lat="44.36487" lon="5.9468">
        <ele>572.1218262</ele>
        <time>2016-02-05T12:56:09Z</time>
      </trkpt>
      <trkpt lat="44.36498" lon="5.94681">
        <ele>570.6796875</ele>
        <time>2016-02-05T12:56:11Z</time>
      </trkpt>
      <trkpt lat="44.36563" lon="5.94675">
        <ele>567.7956543</ele>
        <time>2016-02-05T12:56:21Z</time>
      </trkpt>
      <trkpt lat="44.36622" lon="5.94679">
        <ele>563.9504395</ele>
        <time>2016-02-05T12:56:29Z</time>
      </trkpt>
      <trkpt lat="44.3663" lon="5.94682">
        <ele>563.9504395</ele>
        <time>2016-02-05T12:56:30Z</time>
      </trkpt>
      <trkpt lat="44.36648" lon="5.94689">
        <ele>562.0280762</ele>
        <time>2016-02-05T12:56:32Z</time>
      </trkpt>
      <trkpt lat="44.36702" lon="5.94713">
        <ele>560.5859375</ele>
        <time>2016-02-05T12:56:39Z</time>
      </trkpt>
      <trkpt lat="44.36761" lon="5.94718">
        <ele>559.144043</ele>
        <time>2016-02-05T12:56:51Z</time>
      </trkpt>
      <trkpt lat="44.36815" lon="5.9471">
        <ele>558.6633301</ele>
        <time>2016-02-05T12:57:08Z</time>
      </trkpt>
      <trkpt lat="44.3687" lon="5.94706">
        <ele>557.7021484</ele>
        <time>2016-02-05T12:57:23Z</time>
      </trkpt>
      <trkpt lat="44.36874" lon="5.94706">
        <ele>557.7021484</ele>
        <time>2016-02-05T12:57:24Z</time>
      </trkpt>
      <trkpt lat="44.36903" lon="5.947">
        <ele>556.7407227</ele>
        <time>2016-02-05T12:57:34Z</time>
      </trkpt>
      <trkpt lat="44.36943" lon="5.94689">
        <ele>559.144043</ele>
        <time>2016-02-05T12:57:50Z</time>
      </trkpt>
      <trkpt lat="44.36975" lon="5.947">
        <ele>561.0666504</ele>
        <time>2016-02-05T12:58:07Z</time>
      </trkpt>
      <trkpt lat="44.37007" lon="5.94722">
        <ele>563.9504395</ele>
        <time>2016-02-05T12:58:27Z</time>
      </trkpt>
      <trkpt lat="44.37047" lon="5.94757">
        <ele>565.3925781</ele>
        <time>2016-02-05T12:58:48Z</time>
      </trkpt>
      <trkpt lat="44.37084" lon="5.94797">
        <ele>567.7956543</ele>
        <time>2016-02-05T12:59:10Z</time>
      </trkpt>
      <trkpt lat="44.37106" lon="5.94831">
        <ele>570.1989746</ele>
        <time>2016-02-05T12:59:30Z</time>
      </trkpt>
      <trkpt lat="44.37137" lon="5.94874">
        <ele>573.083252</ele>
        <time>2016-02-05T12:59:52Z</time>
      </trkpt>
      <trkpt lat="44.37175" lon="5.94901">
        <ele>575.967041</ele>
        <time>2016-02-05T13:00:14Z</time>
      </trkpt>
      <trkpt lat="44.37218" lon="5.94908">
        <ele>578.3703613</ele>
        <time>2016-02-05T13:00:37Z</time>
      </trkpt>
      <trkpt lat="44.37259" lon="5.94915">
        <ele>581.2543945</ele>
        <time>2016-02-05T13:00:59Z</time>
      </trkpt>
      <trkpt lat="44.37263" lon="5.94917">
        <ele>581.2543945</ele>
        <time>2016-02-05T13:01:01Z</time>
      </trkpt>
      <trkpt lat="44.37295" lon="5.94923">
        <ele>584.6188965</ele>
        <time>2016-02-05T13:01:20Z</time>
      </trkpt>
      <trkpt lat="44.37325" lon="5.94932">
        <ele>586.060791</ele>
        <time>2016-02-05T13:01:37Z</time>
      </trkpt>
      <trkpt lat="44.37359" lon="5.94964">
        <ele>586.060791</ele>
        <time>2016-02-05T13:01:56Z</time>
      </trkpt>
      <trkpt lat="44.37402" lon="5.95021">
        <ele>585.0996094</ele>
        <time>2016-02-05T13:02:14Z</time>
      </trkpt>
      <trkpt lat="44.37429" lon="5.95059">
        <ele>583.6574707</ele>
        <time>2016-02-05T13:02:23Z</time>
      </trkpt>
      <trkpt lat="44.37464" lon="5.95111">
        <ele>582.6962891</ele>
        <time>2016-02-05T13:02:34Z</time>
      </trkpt>
      <trkpt lat="44.37523" lon="5.95139">
        <ele>581.2543945</ele>
        <time>2016-02-05T13:02:47Z</time>
      </trkpt>
      <trkpt lat="44.37567" lon="5.95148">
        <ele>581.2543945</ele>
        <time>2016-02-05T13:03:01Z</time>
      </trkpt>
      <trkpt lat="44.37623" lon="5.95122">
        <ele>580.7736816</ele>
        <time>2016-02-05T13:03:18Z</time>
      </trkpt>
      <trkpt lat="44.3763" lon="5.95118">
        <ele>580.7736816</ele>
        <time>2016-02-05T13:03:20Z</time>
      </trkpt>
      <trkpt lat="44.37717" lon="5.95079">
        <ele>577.4091797</ele>
        <time>2016-02-05T13:03:38Z</time>
      </trkpt>
      <trkpt lat="44.37783" lon="5.95048">
        <ele>574.5251465</ele>
        <time>2016-02-05T13:03:48Z</time>
      </trkpt>
      <trkpt lat="44.37806" lon="5.95019">
        <ele>572.6025391</ele>
        <time>2016-02-05T13:03:52Z</time>
      </trkpt>
      <trkpt lat="44.37813" lon="5.94996">
        <ele>571.1604004</ele>
        <time>2016-02-05T13:03:54Z</time>
      </trkpt>
      <trkpt lat="44.37825" lon="5.94931">
        <ele>568.7570801</ele>
        <time>2016-02-05T13:03:59Z</time>
      </trkpt>
      <trkpt lat="44.3783" lon="5.94905">
        <ele>567.3151855</ele>
        <time>2016-02-05T13:04:01Z</time>
      </trkpt>
      <trkpt lat="44.37836" lon="5.94851">
        <ele>562.9892578</ele>
        <time>2016-02-05T13:04:05Z</time>
      </trkpt>
      <trkpt lat="44.37836" lon="5.9484">
        <ele>562.9892578</ele>
        <time>2016-02-05T13:04:06Z</time>
      </trkpt>
      <trkpt lat="44.37837" lon="5.94829">
        <ele>562.5085449</ele>
        <time>2016-02-05T13:04:07Z</time>
      </trkpt>
      <trkpt lat="44.37859" lon="5.94779">
        <ele>560.1052246</ele>
        <time>2016-02-05T13:04:13Z</time>
      </trkpt>
      <trkpt lat="44.37865" lon="5.94774">
        <ele>559.144043</ele>
        <time>2016-02-05T13:04:14Z</time>
      </trkpt>
      <trkpt lat="44.37878" lon="5.94763">
        <ele>558.1828613</ele>
        <time>2016-02-05T13:04:16Z</time>
      </trkpt>
      <trkpt lat="44.37903" lon="5.9473">
        <ele>557.2214355</ele>
        <time>2016-02-05T13:04:20Z</time>
      </trkpt>
      <trkpt lat="44.37914" lon="5.94712">
        <ele>556.2600098</ele>
        <time>2016-02-05T13:04:22Z</time>
      </trkpt>
      <trkpt lat="44.37942" lon="5.94682">
        <ele>554.3374023</ele>
        <time>2016-02-05T13:04:26Z</time>
      </trkpt>
      <trkpt lat="44.3799" lon="5.94663">
        <ele>552.8952637</ele>
        <time>2016-02-05T13:04:32Z</time>
      </trkpt>
      <trkpt lat="44.38027" lon="5.94611">
        <ele>550.9726563</ele>
        <time>2016-02-05T13:04:39Z</time>
      </trkpt>
      <trkpt lat="44.38038" lon="5.94575">
        <ele>549.5307617</ele>
        <time>2016-02-05T13:04:43Z</time>
      </trkpt>
      <trkpt lat="44.38063" lon="5.94489">
        <ele>549.0500488</ele>
        <time>2016-02-05T13:04:54Z</time>
      </trkpt>
      <trkpt lat="44.38069" lon="5.94471">
        <ele>548.5693359</ele>
        <time>2016-02-05T13:04:57Z</time>
      </trkpt>
      <trkpt lat="44.38101" lon="5.94429">
        <ele>547.6081543</ele>
        <time>2016-02-05T13:05:06Z</time>
      </trkpt>
      <trkpt lat="44.38177" lon="5.94376">
        <ele>546.6468506</ele>
        <time>2016-02-05T13:05:23Z</time>
      </trkpt>
      <trkpt lat="44.38187" lon="5.94365">
        <ele>546.1662598</ele>
        <time>2016-02-05T13:05:26Z</time>
      </trkpt>
      <trkpt lat="44.38243" lon="5.94286">
        <ele>546.6468506</ele>
        <time>2016-02-05T13:05:46Z</time>
      </trkpt>
      <trkpt lat="44.38271" lon="5.94232">
        <ele>547.6081543</ele>
        <time>2016-02-05T13:06:02Z</time>
      </trkpt>
      <trkpt lat="44.38301" lon="5.94175">
        <ele>548.0888672</ele>
        <time>2016-02-05T13:06:16Z</time>
      </trkpt>
      <trkpt lat="44.38332" lon="5.94148">
        <ele>550.9726563</ele>
        <time>2016-02-05T13:06:32Z</time>
      </trkpt>
      <trkpt lat="44.38358" lon="5.94185">
        <ele>552.4145508</ele>
        <time>2016-02-05T13:06:49Z</time>
      </trkpt>
      <trkpt lat="44.38379" lon="5.94229">
        <ele>555.298584</ele>
        <time>2016-02-05T13:07:08Z</time>
      </trkpt>
      <trkpt lat="44.38413" lon="5.94259">
        <ele>557.2214355</ele>
        <time>2016-02-05T13:07:27Z</time>
      </trkpt>
      <trkpt lat="44.38456" lon="5.94282">
        <ele>559.144043</ele>
        <time>2016-02-05T13:07:48Z</time>
      </trkpt>
      <trkpt lat="44.38487" lon="5.94266">
        <ele>560.5859375</ele>
        <time>2016-02-05T13:08:04Z</time>
      </trkpt>
      <trkpt lat="44.38491" lon="5.94256">
        <ele>561.0666504</ele>
        <time>2016-02-05T13:08:07Z</time>
      </trkpt>
      <trkpt lat="44.38505" lon="5.94249">
        <ele>562.0280762</ele>
        <time>2016-02-05T13:08:16Z</time>
      </trkpt>
      <trkpt lat="44.38519" lon="5.94236">
        <ele>562.0280762</ele>
        <time>2016-02-05T13:08:29Z</time>
      </trkpt>
      <trkpt lat="44.3852" lon="5.94234">
        <ele>561.0666504</ele>
        <time>2016-02-05T13:08:52Z</time>
      </trkpt>
    </trkseg>
  </trk>
</gpx>